Time,TemperatureF,DewpointF,PressureIn,WindDirection,WindDirectionDegrees,WindSpeedMPH,WindSpeedGustMPH,Humidity,HourlyPrecipIn,Conditions,Clouds,dailyrainin,SoftwareType,DateUTC
2013-10-13 00:01:00,38.7,33.0,28.97,NW,315,2.3,2.3,80,0.00,CLR,,0.00,WeatherDisplay:10.37,2013-10-13 05:01:00,
2013-10-13 00:02:00,38.7,33.0,28.97,NW,315,2.6,2.6,80,0.00,CLR,,0.00,WeatherDisplay:10.37,2013-10-13 05:02:00,
2013-10-13 00:03:00,38.7,33.0,28.97,NW,315,2.3,2.4,80,0.00,CLR,,0.00,WeatherDisplay:10.37,2013-10-13 05:03:00,
2013-10-13 00:04:00,38.7,33.0,28.97,WNW,292,2.3,2.3,80,0.00,CLR,,0.00,WeatherDisplay:10.37,2013-10-13 05:04:00,
2013-10-13 00:06:00,38.7,33.0,28.97,NW,315,2.3,2.3,80,0.00,CLR,,0.00,WeatherDisplay:10.37,2013-10-13 05:06:00,
2013-10-13 00:07:00,38.7,33.3,28.97,NW,315,1.2,1.4,81,0.00,CLR,,0.00,WeatherDisplay:10.37,2013-10-13 05:07:00,
2013-10-13 00:08:00,38.7,33.3,28.97,NW,315,1.6,1.6,81,0.00,CLR,,0.00,WeatherDisplay:10.37,2013-10-13 05:08:00,
2013-10-13 00:09:00,38.7,33.3,28.97,NW,315,1.2,1.2,81,0.00,CLR,,0.00,WeatherDisplay:10.37,2013-10-13 05:09:00,
2013-10-13 00:12:00,38.5,33.2,28.97,NW,315,2.3,2.3,81,0.00,CLR,,0.00,WeatherDisplay:10.37,2013-10-13 05:12:00,
2013-10-13 00:13:00,38.5,33.5,28.97,NNW,338,2.3,2.3,82,0.00,CLR,,0.00,WeatherDisplay:10.37,2013-10-13 05:13:00,
2013-10-13 00:15:00,38.5,33.5,28.97,NNW,338,2.3,2.3,82,0.00,CLR,,0.00,WeatherDisplay:10.37,2013-10-13 05:15:00,
2013-10-13 00:17:00,38.3,33.3,28.97,NNW,338,1.6,1.6,82,0.00,CLR,,0.00,WeatherDisplay:10.37,2013-10-13 05:17:00,
2013-10-13 00:18:00,38.3,33.3,28.97,NNW,338,1.6,1.6,82,0.00,CLR,,0.00,WeatherDisplay:10.37,2013-10-13 05:18:00,
2013-10-13 00:20:00,38.3,33.6,28.97,NNW,338,1.4,1.4,83,0.00,CLR,,0.00,WeatherDisplay:10.37,2013-10-13 05:20:00,
2013-10-13 00:22:00,38.1,33.1,28.97,NNW,338,1.2,1.4,82,0.00,CLR,,0.00,WeatherDisplay:10.37,2013-10-13 05:22:00,
2013-10-13 00:23:00,38.1,33.1,28.97,NNW,338,1.2,1.2,82,0.00,CLR,,0.00,WeatherDisplay:10.37,2013-10-13 05:23:00,
2013-10-13 00:24:00,38.1,33.1,28.97,NNW,338,1.2,1.2,82,0.00,CLR,,0.00,WeatherDisplay:10.37,2013-10-13 05:24:00,
2013-10-13 00:25:00,37.9,32.9,28.97,NNW,338,1.2,0.0,82,0.00,CLR,,0.00,WeatherDisplay:10.37,2013-10-13 05:25:00,
2013-10-13 00:27:00,37.9,33.2,28.97,NNW,338,2.3,2.3,83,0.00,CLR,,0.00,WeatherDisplay:10.37,2013-10-13 05:27:00,
2013-10-13 00:28:00,37.9,33.2,28.97,NNW,338,2.3,2.3,83,0.00,CLR,,0.00,WeatherDisplay:10.37,2013-10-13 05:28:00,
2013-10-13 00:29:00,37.9,33.2,28.97,NNW,338,2.3,2.3,83,0.00,CLR,,0.00,WeatherDisplay:10.37,2013-10-13 05:29:00,
2013-10-13 00:30:00,37.9,33.2,28.97,NNW,338,2.3,2.3,83,0.00,CLR,,0.00,WeatherDisplay:10.37,2013-10-13 05:30:00,
2013-10-13 00:33:00,37.9,33.2,28.97,NNW,338,2.3,2.3,83,0.00,CLR,,0.00,WeatherDisplay:10.37,2013-10-13 05:33:00,
2013-10-13 00:34:00,37.8,33.1,28.97,NNW,338,2.3,2.3,83,0.00,CLR,,0.00,WeatherDisplay:10.37,2013-10-13 05:34:00,
2013-10-13 00:36:00,37.9,33.5,28.97,NNW,338,2.3,2.3,84,0.00,CLR,,0.00,WeatherDisplay:10.37,2013-10-13 05:36:00,
2013-10-13 00:38:00,37.8,33.4,28.97,NNW,338,1.2,1.4,84,0.00,CLR,,0.00,WeatherDisplay:10.37,2013-10-13 05:38:00,
2013-10-13 00:39:00,37.8,33.4,28.97,NNW,338,1.2,0.0,84,0.00,CLR,,0.00,WeatherDisplay:10.37,2013-10-13 05:39:00,
2013-10-13 00:42:00,37.8,33.1,28.97,NNW,338,0.0,0.0,83,0.00,CLR,,0.00,WeatherDisplay:10.37,2013-10-13 05:42:00,
2013-10-13 00:43:00,37.6,33.2,28.97,NNW,338,0.0,0.0,84,0.00,CLR,,0.00,WeatherDisplay:10.37,2013-10-13 05:43:00,
2013-10-13 00:44:00,37.6,33.2,28.97,NNW,338,0.0,0.0,84,0.00,CLR,,0.00,WeatherDisplay:10.37,2013-10-13 05:44:00,
2013-10-13 00:45:00,37.6,33.2,28.97,NNW,338,1.6,0.0,84,0.00,CLR,,0.00,WeatherDisplay:10.37,2013-10-13 05:45:00,
2013-10-13 00:46:00,37.6,32.9,28.97,NNW,338,1.2,1.2,83,0.00,CLR,,0.00,WeatherDisplay:10.37,2013-10-13 05:46:00,
2013-10-13 00:47:00,37.6,32.9,28.97,NNW,338,1.4,1.4,83,0.00,CLR,,0.00,WeatherDisplay:10.37,2013-10-13 05:47:00,
2013-10-13 00:48:00,37.6,32.9,28.97,NNW,338,1.2,1.2,83,0.00,CLR,,0.00,WeatherDisplay:10.37,2013-10-13 05:48:00,
2013-10-13 00:49:00,37.6,32.9,28.97,NNW,338,1.2,0.0,83,0.00,CLR,,0.00,WeatherDisplay:10.37,2013-10-13 05:49:00,
2013-10-13 00:50:00,37.6,32.9,28.97,NNW,338,0.0,2.0,83,0.00,CLR,,0.00,WeatherDisplay:10.37,2013-10-13 05:50:00,
2013-10-13 00:52:00,37.6,32.9,28.97,NNW,338,0.0,0.0,83,0.00,CLR,,0.00,WeatherDisplay:10.37,2013-10-13 05:52:00,
2013-10-13 00:53:00,37.6,33.2,28.97,NNW,338,0.0,0.0,84,0.00,CLR,,0.00,WeatherDisplay:10.37,2013-10-13 05:53:00,
2013-10-13 00:54:00,37.4,33.0,29.00,NNW,338,0.0,0.0,84,0.00,CLR,,0.00,WeatherDisplay:10.37,2013-10-13 05:54:00,
2013-10-13 00:55:00,37.4,33.0,29.00,NNW,338,0.0,0.0,84,0.00,CLR,,0.00,WeatherDisplay:10.37,2013-10-13 05:55:00,
2013-10-13 00:57:00,37.4,33.0,29.00,NNW,338,0.0,0.0,84,0.00,CLR,,0.00,WeatherDisplay:10.37,2013-10-13 05:57:00,
2013-10-13 00:58:00,37.2,32.8,29.00,NNW,338,0.0,0.0,84,0.00,CLR,,0.00,WeatherDisplay:10.37,2013-10-13 05:58:00,
2013-10-13 00:59:00,37.2,32.8,29.00,NNW,338,1.2,0.0,84,0.00,CLR,,0.00,WeatherDisplay:10.37,2013-10-13 05:59:00,
2013-10-13 01:00:00,37.2,32.8,29.00,NNW,338,1.2,0.0,84,0.00,CLR,,0.00,WeatherDisplay:10.37,2013-10-13 06:00:00,
2013-10-13 01:02:00,37.2,32.8,29.00,NNW,338,0.0,0.0,84,0.00,CLR,,0.00,WeatherDisplay:10.37,2013-10-13 06:02:00,
2013-10-13 01:03:00,37.2,32.8,29.00,NNW,338,0.0,0.0,84,0.00,CLR,,0.00,WeatherDisplay:10.37,2013-10-13 06:03:00,
2013-10-13 01:05:00,37.4,33.0,29.00,NNW,338,0.0,0.0,84,0.00,CLR,,0.00,WeatherDisplay:10.37,2013-10-13 06:05:00,
2013-10-13 01:06:00,37.4,33.0,29.00,NNW,338,0.0,0.0,84,0.00,CLR,,0.00,WeatherDisplay:10.37,2013-10-13 06:06:00,
2013-10-13 01:07:00,37.2,33.1,29.00,NNW,338,0.0,0.0,85,0.00,CLR,,0.00,WeatherDisplay:10.37,2013-10-13 06:07:00,
2013-10-13 01:08:00,37.2,33.1,29.00,NNW,338,0.0,0.0,85,0.00,CLR,,0.00,WeatherDisplay:10.37,2013-10-13 06:08:00,
2013-10-13 01:10:00,37.2,33.1,29.00,NNW,338,0.0,0.0,85,0.00,CLR,,0.00,WeatherDisplay:10.37,2013-10-13 06:10:00,
2013-10-13 01:11:00,37.2,33.1,29.00,NNW,338,0.0,0.0,85,0.00,CLR,,0.00,WeatherDisplay:10.37,2013-10-13 06:11:00,
2013-10-13 01:12:00,37.2,33.1,29.00,NNW,338,0.0,0.0,85,0.00,CLR,,0.00,WeatherDisplay:10.37,2013-10-13 06:12:00,
2013-10-13 01:13:00,37.2,33.1,29.00,NNW,338,0.0,0.0,85,0.00,CLR,,0.00,WeatherDisplay:10.37,2013-10-13 06:13:00,
2013-10-13 01:14:00,37.2,33.1,29.00,NNW,338,0.0,0.0,85,0.00,CLR,,0.00,WeatherDisplay:10.37,2013-10-13 06:14:00,
2013-10-13 01:15:00,37.2,33.1,29.00,NNW,338,0.0,0.0,85,0.00,CLR,,0.00,WeatherDisplay:10.37,2013-10-13 06:15:00,
2013-10-13 01:16:00,37.0,32.9,29.00,NNW,338,0.0,0.0,85,0.00,CLR,,0.00,WeatherDisplay:10.37,2013-10-13 06:16:00,
2013-10-13 01:18:00,37.0,32.9,29.00,NNW,338,0.0,0.0,85,0.00,CLR,,0.00,WeatherDisplay:10.37,2013-10-13 06:18:00,
2013-10-13 01:19:00,37.0,32.9,29.00,NNW,338,2.0,2.0,85,0.00,CLR,,0.00,WeatherDisplay:10.37,2013-10-13 06:19:00,
2013-10-13 01:20:00,37.0,32.9,29.00,NW,315,2.3,2.3,85,0.00,CLR,,0.00,WeatherDisplay:10.37,2013-10-13 06:20:00,
2013-10-13 01:21:00,37.0,32.9,29.00,NW,315,2.4,2.4,85,0.00,CLR,,0.00,WeatherDisplay:10.37,2013-10-13 06:21:00,
2013-10-13 01:22:00,37.0,32.9,29.00,NW,315,2.3,2.3,85,0.00,CLR,,0.00,WeatherDisplay:10.37,2013-10-13 06:22:00,
2013-10-13 01:23:00,37.0,32.7,29.00,NW,315,2.4,2.4,84,0.00,CLR,,0.00,WeatherDisplay:10.37,2013-10-13 06:23:00,
2013-10-13 01:24:00,37.0,32.7,29.00,WNW,292,2.3,2.3,84,0.00,CLR,,0.00,WeatherDisplay:10.37,2013-10-13 06:24:00,
2013-10-13 01:25:00,37.0,32.7,29.00,NW,315,2.3,2.3,84,0.00,CLR,,0.00,WeatherDisplay:10.37,2013-10-13 06:25:00,
2013-10-13 01:27:00,37.0,32.7,29.00,NW,315,1.6,1.6,84,0.00,CLR,,0.00,WeatherDisplay:10.37,2013-10-13 06:27:00,
2013-10-13 01:28:00,36.9,32.5,29.00,NW,315,2.3,2.3,84,0.00,CLR,,0.00,WeatherDisplay:10.37,2013-10-13 06:28:00,
2013-10-13 01:29:00,36.9,32.5,29.00,NW,315,2.3,2.3,84,0.00,CLR,,0.00,WeatherDisplay:10.37,2013-10-13 06:29:00,
2013-10-13 01:30:00,36.9,32.5,29.00,NW,315,1.2,1.2,84,0.00,CLR,,0.00,WeatherDisplay:10.37,2013-10-13 06:30:00,
2013-10-13 01:31:00,36.9,32.5,29.00,NW,315,1.2,0.0,84,0.00,CLR,,0.00,WeatherDisplay:10.37,2013-10-13 06:31:00,
2013-10-13 01:32:00,36.9,32.8,29.00,NW,315,0.0,0.0,85,0.00,CLR,,0.00,WeatherDisplay:10.37,2013-10-13 06:32:00,
2013-10-13 01:33:00,36.9,32.8,29.00,NW,315,0.0,0.0,85,0.00,CLR,,0.00,WeatherDisplay:10.37,2013-10-13 06:33:00,
2013-10-13 01:35:00,36.9,33.1,29.00,NW,315,1.4,0.0,86,0.00,CLR,,0.00,WeatherDisplay:10.37,2013-10-13 06:35:00,
2013-10-13 01:36:00,36.9,33.1,29.00,NNW,338,2.3,2.3,86,0.00,CLR,,0.00,WeatherDisplay:10.37,2013-10-13 06:36:00,
2013-10-13 01:38:00,36.9,33.1,29.00,NNW,338,2.3,2.3,86,0.00,CLR,,0.00,WeatherDisplay:10.37,2013-10-13 06:38:00,
2013-10-13 01:39:00,36.9,33.1,29.00,NNW,338,1.6,1.6,86,0.00,CLR,,0.00,WeatherDisplay:10.37,2013-10-13 06:39:00,
2013-10-13 01:40:00,36.9,33.1,29.00,NNW,338,2.3,2.3,86,0.00,CLR,,0.00,WeatherDisplay:10.37,2013-10-13 06:40:00,
2013-10-13 01:41:00,36.9,33.4,29.00,NNW,338,2.3,2.3,87,0.00,CLR,,0.00,WeatherDisplay:10.37,2013-10-13 06:41:00,
2013-10-13 01:42:00,36.9,33.4,29.00,NNW,338,1.2,1.2,87,0.00,CLR,,0.00,WeatherDisplay:10.37,2013-10-13 06:42:00,
2013-10-13 01:43:00,36.9,33.1,29.00,NNW,338,1.2,0.0,86,0.00,CLR,,0.00,WeatherDisplay:10.37,2013-10-13 06:43:00,
2013-10-13 01:44:00,37.0,33.5,29.00,NNW,338,1.4,0.0,87,0.00,CLR,,0.00,WeatherDisplay:10.37,2013-10-13 06:44:00,
2013-10-13 01:45:00,37.0,33.5,29.00,NNW,338,2.3,2.3,87,0.00,CLR,,0.00,WeatherDisplay:10.37,2013-10-13 06:45:00,
2013-10-13 01:46:00,37.0,33.2,29.00,NNW,338,2.3,2.3,86,0.00,CLR,,0.00,WeatherDisplay:10.37,2013-10-13 06:46:00,
2013-10-13 01:47:00,37.0,33.5,29.00,NNW,338,2.3,2.3,87,0.00,CLR,,0.00,WeatherDisplay:10.37,2013-10-13 06:47:00,
2013-10-13 01:49:00,37.0,33.5,29.00,NNW,338,2.3,2.3,87,0.00,CLR,,0.00,WeatherDisplay:10.37,2013-10-13 06:49:00,
2013-10-13 01:50:00,37.0,33.5,29.00,NNW,338,1.2,1.2,87,0.00,CLR,,0.00,WeatherDisplay:10.37,2013-10-13 06:50:00,
2013-10-13 01:51:00,36.9,33.4,29.00,NNW,338,0.0,0.0,87,0.00,CLR,,0.00,WeatherDisplay:10.37,2013-10-13 06:51:00,
2013-10-13 01:53:00,36.9,33.1,29.00,NNW,338,0.0,0.0,86,0.00,CLR,,0.00,WeatherDisplay:10.37,2013-10-13 06:53:00,
2013-10-13 01:54:00,36.9,33.1,29.00,NNW,338,1.6,1.6,86,0.00,CLR,,0.00,WeatherDisplay:10.37,2013-10-13 06:54:00,
2013-10-13 01:55:00,37.0,33.2,29.00,NNW,338,1.2,0.0,86,0.00,CLR,,0.00,WeatherDisplay:10.37,2013-10-13 06:55:00,
2013-10-13 01:56:00,37.0,33.2,29.00,NNW,338,0.0,0.0,86,0.00,CLR,,0.00,WeatherDisplay:10.37,2013-10-13 06:56:00,
2013-10-13 01:58:00,37.0,33.2,29.00,NNW,338,0.0,0.0,86,0.00,CLR,,0.00,WeatherDisplay:10.37,2013-10-13 06:58:00,
2013-10-13 01:59:00,37.0,33.2,29.00,NNW,338,0.0,0.0,86,0.00,CLR,,0.00,WeatherDisplay:10.37,2013-10-13 06:59:00,
2013-10-13 02:00:00,37.0,33.5,29.00,NNW,338,0.0,0.0,87,0.00,CLR,,0.00,WeatherDisplay:10.37,2013-10-13 07:00:00,
2013-10-13 02:01:00,37.0,33.5,29.00,NNW,338,0.0,0.0,87,0.00,CLR,,0.00,WeatherDisplay:10.37,2013-10-13 07:01:00,
2013-10-13 02:03:00,37.0,33.2,29.00,NNW,338,0.0,0.0,86,0.00,CLR,,0.00,WeatherDisplay:10.37,2013-10-13 07:03:00,
2013-10-13 02:04:00,37.0,33.2,29.00,NNW,338,0.0,0.0,86,0.00,CLR,,0.00,WeatherDisplay:10.37,2013-10-13 07:04:00,
2013-10-13 02:05:00,37.0,33.2,29.00,NNW,338,0.0,0.0,86,0.00,CLR,,0.00,WeatherDisplay:10.37,2013-10-13 07:05:00,
2013-10-13 02:06:00,37.0,33.2,29.00,NNW,338,0.0,0.0,86,0.00,CLR,,0.00,WeatherDisplay:10.37,2013-10-13 07:06:00,
2013-10-13 02:08:00,37.0,33.2,29.00,NW,315,2.0,0.0,86,0.00,CLR,,0.00,WeatherDisplay:10.37,2013-10-13 07:08:00,
2013-10-13 02:09:00,37.0,33.2,29.00,NW,315,2.3,2.3,86,0.00,CLR,,0.00,WeatherDisplay:10.37,2013-10-13 07:09:00,
2013-10-13 02:10:00,37.4,33.6,29.03,NW,315,2.3,2.3,86,0.00,CLR,,0.00,WeatherDisplay:10.37,2013-10-13 07:10:00,
2013-10-13 02:11:00,37.4,33.6,29.03,NW,315,2.3,2.3,86,0.00,CLR,,0.00,WeatherDisplay:10.37,2013-10-13 07:11:00,
2013-10-13 02:14:00,37.4,33.6,29.03,West,270,2.3,2.3,86,0.00,CLR,,0.00,WeatherDisplay:10.37,2013-10-13 07:14:00,
2013-10-13 02:15:00,37.4,33.6,29.03,WNW,292,2.3,2.3,86,0.00,CLR,,0.00,WeatherDisplay:10.37,2013-10-13 07:15:00,
2013-10-13 02:16:00,37.4,33.6,29.03,West,270,2.3,2.3,86,0.00,CLR,,0.00,WeatherDisplay:10.37,2013-10-13 07:16:00,
2013-10-13 02:19:00,37.6,33.8,29.03,WSW,248,1.2,0.0,86,0.00,CLR,,0.00,WeatherDisplay:10.37,2013-10-13 07:19:00,
2013-10-13 02:20:00,37.6,33.8,29.03,WSW,248,0.0,0.0,86,0.00,CLR,,0.00,WeatherDisplay:10.37,2013-10-13 07:20:00,
2013-10-13 02:21:00,37.6,33.8,29.03,WSW,248,0.0,0.0,86,0.00,CLR,,0.00,WeatherDisplay:10.37,2013-10-13 07:21:00,
2013-10-13 02:23:00,37.8,34.2,29.03,WSW,248,0.0,0.0,87,0.00,CLR,,0.00,WeatherDisplay:10.37,2013-10-13 07:23:00,
2013-10-13 02:24:00,37.8,34.2,29.03,WSW,248,0.0,0.0,87,0.00,CLR,,0.00,WeatherDisplay:10.37,2013-10-13 07:24:00,
2013-10-13 02:25:00,37.8,34.2,29.03,WSW,248,0.0,0.0,87,0.00,CLR,,0.00,WeatherDisplay:10.37,2013-10-13 07:25:00,
2013-10-13 02:26:00,37.8,34.2,29.03,WSW,248,0.0,0.0,87,0.00,CLR,,0.00,WeatherDisplay:10.37,2013-10-13 07:26:00,
2013-10-13 02:28:00,37.8,34.2,29.03,WSW,248,0.0,0.0,87,0.00,CLR,,0.00,WeatherDisplay:10.37,2013-10-13 07:28:00,
2013-10-13 02:29:00,37.8,34.2,29.03,West,270,0.0,0.0,87,0.00,CLR,,0.00,WeatherDisplay:10.37,2013-10-13 07:29:00,
2013-10-13 02:30:00,37.8,34.2,29.03,WSW,248,0.0,0.0,87,0.00,CLR,,0.00,WeatherDisplay:10.37,2013-10-13 07:30:00,
2013-10-13 02:31:00,37.8,34.2,29.03,WSW,248,0.0,0.0,87,0.00,CLR,,0.00,WeatherDisplay:10.37,2013-10-13 07:31:00,
2013-10-13 02:32:00,37.8,34.2,29.03,WSW,248,0.0,0.0,87,0.00,CLR,,0.00,WeatherDisplay:10.37,2013-10-13 07:32:00,
2013-10-13 02:33:00,37.9,34.4,29.03,NW,315,0.0,0.0,87,0.00,CLR,,0.00,WeatherDisplay:10.37,2013-10-13 07:33:00,
2013-10-13 02:35:00,37.9,34.4,29.03,NW,315,0.0,0.0,87,0.00,CLR,,0.00,WeatherDisplay:10.37,2013-10-13 07:35:00,
2013-10-13 02:36:00,37.8,34.2,29.03,NW,315,0.0,0.0,87,0.00,CLR,,0.00,WeatherDisplay:10.37,2013-10-13 07:36:00,
2013-10-13 02:37:00,37.6,34.1,29.03,NW,315,0.0,0.0,87,0.00,CLR,,0.00,WeatherDisplay:10.37,2013-10-13 07:37:00,
2013-10-13 02:39:00,37.6,34.1,29.03,NW,315,0.0,0.0,87,0.00,CLR,,0.00,WeatherDisplay:10.37,2013-10-13 07:39:00,
2013-10-13 02:40:00,37.6,34.1,29.03,NW,315,0.0,0.0,87,0.00,CLR,,0.00,WeatherDisplay:10.37,2013-10-13 07:40:00,
2013-10-13 02:41:00,37.6,34.1,29.03,NW,315,0.0,0.0,87,0.00,CLR,,0.00,WeatherDisplay:10.37,2013-10-13 07:41:00,
2013-10-13 02:42:00,37.6,34.1,29.03,NW,315,0.0,0.0,87,0.00,CLR,,0.00,WeatherDisplay:10.37,2013-10-13 07:42:00,
2013-10-13 02:44:00,37.6,34.1,29.03,WNW,292,0.0,0.0,87,0.00,CLR,,0.00,WeatherDisplay:10.37,2013-10-13 07:44:00,
2013-10-13 02:45:00,37.6,34.1,29.03,WNW,292,0.0,0.0,87,0.00,CLR,,0.00,WeatherDisplay:10.37,2013-10-13 07:45:00,
2013-10-13 02:46:00,37.6,34.1,29.03,WNW,292,0.0,0.0,87,0.00,CLR,,0.00,WeatherDisplay:10.37,2013-10-13 07:46:00,
2013-10-13 02:47:00,37.6,34.1,29.03,NW,315,1.6,0.0,87,0.00,CLR,,0.00,WeatherDisplay:10.37,2013-10-13 07:47:00,
2013-10-13 02:49:00,37.6,34.1,29.03,WNW,292,2.3,2.3,87,0.00,CLR,,0.00,WeatherDisplay:10.37,2013-10-13 07:49:00,
2013-10-13 02:50:00,37.6,34.1,29.03,WNW,292,2.3,2.3,87,0.00,CLR,,0.00,WeatherDisplay:10.37,2013-10-13 07:50:00,
2013-10-13 02:51:00,37.6,34.1,29.03,West,270,2.3,0.0,87,0.00,CLR,,0.00,WeatherDisplay:10.37,2013-10-13 07:51:00,
2013-10-13 02:52:00,37.6,34.1,29.03,West,270,2.3,2.3,87,0.00,CLR,,0.00,WeatherDisplay:10.37,2013-10-13 07:52:00,
2013-10-13 02:53:00,37.6,34.1,29.03,West,270,2.3,2.3,87,0.00,CLR,,0.00,WeatherDisplay:10.37,2013-10-13 07:53:00,
2013-10-13 02:54:00,37.6,34.1,29.06,West,270,1.2,0.0,87,0.00,CLR,,0.00,WeatherDisplay:10.37,2013-10-13 07:54:00,
2013-10-13 02:56:00,37.6,34.1,29.06,West,270,0.0,0.0,87,0.00,CLR,,0.00,WeatherDisplay:10.37,2013-10-13 07:56:00,
2013-10-13 02:57:00,37.6,34.1,29.06,WNW,292,0.0,0.0,87,0.00,CLR,,0.00,WeatherDisplay:10.37,2013-10-13 07:57:00,
2013-10-13 02:58:00,37.6,34.1,29.06,WNW,292,2.3,2.3,87,0.00,CLR,,0.00,WeatherDisplay:10.37,2013-10-13 07:58:00,
2013-10-13 02:59:00,37.6,34.1,29.06,WNW,292,2.3,2.3,87,0.00,CLR,,0.00,WeatherDisplay:10.37,2013-10-13 07:59:00,
2013-10-13 03:01:00,37.6,34.1,29.06,NW,315,2.3,2.3,87,0.00,CLR,,0.00,WeatherDisplay:10.37,2013-10-13 08:01:00,
2013-10-13 03:02:00,37.6,34.1,29.06,West,270,2.3,2.3,87,0.00,CLR,,0.00,WeatherDisplay:10.37,2013-10-13 08:02:00,
2013-10-13 03:04:00,37.6,34.1,29.06,WNW,292,1.2,0.0,87,0.00,CLR,,0.00,WeatherDisplay:10.37,2013-10-13 08:04:00,
2013-10-13 03:05:00,37.6,34.1,29.06,WNW,293,0.0,2.0,87,0.00,CLR,,0.00,WeatherDisplay:10.37,2013-10-13 08:05:00,
2013-10-13 03:06:00,37.4,33.9,29.06,WNW,292,1.2,0.0,87,0.00,CLR,,0.00,WeatherDisplay:10.37,2013-10-13 08:06:00,
2013-10-13 03:07:00,37.4,33.9,29.06,WNW,292,1.4,0.0,87,0.00,CLR,,0.00,WeatherDisplay:10.37,2013-10-13 08:07:00,
2013-10-13 03:09:00,37.4,33.9,29.06,WNW,292,1.2,0.0,87,0.00,CLR,,0.00,WeatherDisplay:10.37,2013-10-13 08:09:00,
2013-10-13 03:10:00,37.4,33.9,29.05,WNW,291,0.0,2.0,87,0.00,CLR,,0.00,WeatherDisplay:10.37,2013-10-13 08:10:00,
2013-10-13 03:12:00,37.4,34.2,29.03,West,270,0.0,0.0,88,0.00,CLR,,0.00,WeatherDisplay:10.37,2013-10-13 08:12:00,
2013-10-13 03:14:00,37.4,34.2,29.03,NW,315,0.0,0.0,88,0.00,CLR,,0.00,WeatherDisplay:10.37,2013-10-13 08:14:00,
2013-10-13 03:15:00,37.4,34.2,29.03,NW,315,0.0,0.0,88,0.00,CLR,,0.00,WeatherDisplay:10.37,2013-10-13 08:15:00,
2013-10-13 03:17:00,37.2,34.0,29.03,NW,315,0.0,0.0,88,0.00,CLR,,0.00,WeatherDisplay:10.37,2013-10-13 08:17:00,
2013-10-13 03:18:00,37.2,34.0,29.03,NW,315,0.0,0.0,88,0.00,CLR,,0.00,WeatherDisplay:10.37,2013-10-13 08:18:00,
2013-10-13 03:20:00,37.2,34.0,29.03,NW,315,0.0,0.0,88,0.00,CLR,,0.00,WeatherDisplay:10.37,2013-10-13 08:20:00,
2013-10-13 03:21:00,37.2,34.3,29.03,NW,315,1.2,0.0,89,0.00,CLR,,0.00,WeatherDisplay:10.37,2013-10-13 08:21:00,
2013-10-13 03:22:00,37.2,34.3,29.03,NW,315,1.2,0.0,89,0.00,CLR,,0.00,WeatherDisplay:10.37,2013-10-13 08:22:00,
2013-10-13 03:23:00,37.2,34.3,29.03,NW,315,0.0,0.0,89,0.00,CLR,,0.00,WeatherDisplay:10.37,2013-10-13 08:23:00,
2013-10-13 03:25:00,37.4,34.2,29.03,NW,315,0.0,0.0,88,0.00,CLR,,0.00,WeatherDisplay:10.37,2013-10-13 08:25:00,
2013-10-13 03:26:00,37.4,34.5,29.03,NW,315,0.0,0.0,89,0.00,CLR,,0.00,WeatherDisplay:10.37,2013-10-13 08:26:00,
2013-10-13 03:27:00,37.4,34.5,29.03,NW,315,0.0,0.0,89,0.00,CLR,,0.00,WeatherDisplay:10.37,2013-10-13 08:27:00,
2013-10-13 03:28:00,37.4,34.5,29.03,NW,315,2.0,0.0,89,0.00,CLR,,0.00,WeatherDisplay:10.37,2013-10-13 08:28:00,
2013-10-13 03:30:00,37.4,34.5,29.03,NW,315,2.3,2.3,89,0.00,CLR,,0.00,WeatherDisplay:10.37,2013-10-13 08:30:00,
2013-10-13 03:31:00,37.4,34.5,29.03,WNW,292,2.3,2.3,89,0.00,CLR,,0.00,WeatherDisplay:10.37,2013-10-13 08:31:00,
2013-10-13 03:32:00,37.6,34.6,29.03,NW,315,2.3,2.3,89,0.00,CLR,,0.00,WeatherDisplay:10.37,2013-10-13 08:32:00,
2013-10-13 03:33:00,37.8,34.8,29.03,NW,315,2.0,2.0,89,0.00,CLR,,0.00,WeatherDisplay:10.37,2013-10-13 08:33:00,
2013-10-13 03:35:00,37.6,34.6,29.03,NW,315,2.4,2.4,89,0.00,CLR,,0.00,WeatherDisplay:10.37,2013-10-13 08:35:00,
2013-10-13 03:36:00,37.6,34.6,29.03,NW,315,2.3,2.3,89,0.00,CLR,,0.00,WeatherDisplay:10.37,2013-10-13 08:36:00,
2013-10-13 03:37:00,37.6,34.6,29.03,NW,315,2.3,2.3,89,0.00,CLR,,0.00,WeatherDisplay:10.37,2013-10-13 08:37:00,
2013-10-13 03:38:00,37.8,34.8,29.03,NW,315,2.4,2.4,89,0.00,CLR,,0.00,WeatherDisplay:10.37,2013-10-13 08:38:00,
2013-10-13 03:39:00,37.8,34.8,29.03,NW,315,2.4,2.4,89,0.00,CLR,,0.00,WeatherDisplay:10.37,2013-10-13 08:39:00,
2013-10-13 03:41:00,37.9,35.0,29.03,WNW,292,2.3,2.3,89,0.00,CLR,,0.00,WeatherDisplay:10.37,2013-10-13 08:41:00,
2013-10-13 03:42:00,38.1,35.2,29.03,NW,315,2.3,2.3,89,0.00,CLR,,0.00,WeatherDisplay:10.37,2013-10-13 08:42:00,
2013-10-13 03:43:00,38.1,35.2,29.03,WNW,292,2.3,2.3,89,0.00,CLR,,0.00,WeatherDisplay:10.37,2013-10-13 08:43:00,
2013-10-13 03:44:00,38.5,35.8,29.03,West,270,2.4,2.4,90,0.00,CLR,,0.00,WeatherDisplay:10.37,2013-10-13 08:44:00,
2013-10-13 03:46:00,38.5,36.1,29.03,NW,315,3.5,3.5,91,0.00,CLR,,0.00,WeatherDisplay:10.37,2013-10-13 08:46:00,
2013-10-13 03:47:00,38.5,36.1,29.03,WNW,292,2.3,2.4,91,0.00,CLR,,0.00,WeatherDisplay:10.37,2013-10-13 08:47:00,
2013-10-13 03:48:00,38.7,36.3,29.03,NW,315,2.4,2.4,91,0.00,CLR,,0.00,WeatherDisplay:10.37,2013-10-13 08:48:00,
2013-10-13 03:49:00,38.8,36.7,29.03,NNW,338,2.3,2.4,92,0.00,CLR,,0.00,WeatherDisplay:10.37,2013-10-13 08:49:00,
2013-10-13 03:51:00,38.8,37.0,29.03,NW,315,3.5,3.5,93,0.00,CLR,,0.00,WeatherDisplay:10.37,2013-10-13 08:51:00,
2013-10-13 03:52:00,38.8,37.0,29.03,WNW,292,3.5,3.5,93,0.00,CLR,,0.00,WeatherDisplay:10.37,2013-10-13 08:52:00,
2013-10-13 03:53:00,38.8,37.0,29.03,NW,315,2.9,2.9,93,0.00,CLR,,0.00,WeatherDisplay:10.37,2013-10-13 08:53:00,
2013-10-13 03:55:00,38.8,37.0,29.00,WNW,292,2.3,2.3,93,0.00,CLR,,0.00,WeatherDisplay:10.37,2013-10-13 08:55:00,
2013-10-13 03:57:00,38.8,37.0,29.00,West,270,2.4,2.4,93,0.00,CLR,,0.00,WeatherDisplay:10.37,2013-10-13 08:57:00,
2013-10-13 03:58:00,38.8,37.0,29.00,NW,315,2.3,2.3,93,0.00,CLR,,0.00,WeatherDisplay:10.37,2013-10-13 08:58:00,
2013-10-13 03:59:00,38.8,37.0,29.00,NW,315,2.3,2.3,93,0.00,CLR,,0.00,WeatherDisplay:10.37,2013-10-13 08:59:00,
2013-10-13 04:00:00,38.8,37.0,29.00,West,270,1.6,1.6,93,0.00,CLR,,0.00,WeatherDisplay:10.37,2013-10-13 09:00:00,
2013-10-13 04:02:00,38.8,37.0,29.00,WNW,292,2.3,2.3,93,0.00,CLR,,0.00,WeatherDisplay:10.37,2013-10-13 09:02:00,
2013-10-13 04:03:00,38.8,37.0,29.00,WNW,292,1.2,1.4,93,0.00,CLR,,0.00,WeatherDisplay:10.37,2013-10-13 09:03:00,
2013-10-13 04:04:00,38.8,37.0,29.00,WNW,292,1.2,1.2,93,0.00,CLR,,0.00,WeatherDisplay:10.37,2013-10-13 09:04:00,
2013-10-13 04:05:00,38.8,37.0,29.00,WNW,292,0.0,0.0,93,0.00,CLR,,0.00,WeatherDisplay:10.37,2013-10-13 09:05:00,
2013-10-13 04:07:00,38.8,36.7,29.00,WNW,292,0.0,0.0,92,0.00,CLR,,0.00,WeatherDisplay:10.37,2013-10-13 09:07:00,
2013-10-13 04:08:00,38.8,36.7,29.00,WNW,292,0.0,0.0,92,0.00,CLR,,0.00,WeatherDisplay:10.37,2013-10-13 09:08:00,
2013-10-13 04:09:00,38.8,36.7,29.00,WNW,292,1.2,0.0,92,0.00,CLR,,0.00,WeatherDisplay:10.37,2013-10-13 09:09:00,
2013-10-13 04:11:00,38.8,36.7,29.03,WNW,292,0.0,0.0,92,0.00,CLR,,0.00,WeatherDisplay:10.37,2013-10-13 09:11:00,
2013-10-13 04:12:00,38.8,36.7,29.03,West,270,0.0,0.0,92,0.00,CLR,,0.00,WeatherDisplay:10.37,2013-10-13 09:12:00,
2013-10-13 04:13:00,38.8,36.7,29.03,West,270,1.6,0.0,92,0.00,CLR,,0.00,WeatherDisplay:10.37,2013-10-13 09:13:00,
2013-10-13 04:14:00,39.0,36.9,29.03,West,270,1.2,1.2,92,0.00,CLR,,0.00,WeatherDisplay:10.37,2013-10-13 09:14:00,
2013-10-13 04:17:00,39.2,37.1,29.03,NW,315,0.0,0.0,92,0.00,CLR,,0.00,WeatherDisplay:10.37,2013-10-13 09:17:00,
2013-10-13 04:18:00,39.2,37.1,29.03,NW,315,0.0,0.0,92,0.00,CLR,,0.00,WeatherDisplay:10.37,2013-10-13 09:18:00,
2013-10-13 04:19:00,39.0,36.9,29.03,NW,315,0.0,0.0,92,0.00,CLR,,0.00,WeatherDisplay:10.37,2013-10-13 09:19:00,
2013-10-13 04:22:00,38.8,36.4,29.03,West,270,1.4,0.0,91,0.00,CLR,,0.00,WeatherDisplay:10.37,2013-10-13 09:22:00,
2013-10-13 04:23:00,39.0,36.6,29.03,West,270,1.2,0.0,91,0.00,CLR,,0.00,WeatherDisplay:10.37,2013-10-13 09:23:00,
2013-10-13 04:24:00,39.0,36.6,29.03,West,270,1.2,0.0,91,0.00,CLR,,0.00,WeatherDisplay:10.37,2013-10-13 09:24:00,
2013-10-13 04:25:00,39.0,36.6,29.06,West,270,0.0,0.0,91,0.00,CLR,,0.00,WeatherDisplay:10.37,2013-10-13 09:25:00,
2013-10-13 04:27:00,39.0,36.6,29.06,West,270,0.0,0.0,91,0.00,CLR,,0.00,WeatherDisplay:10.37,2013-10-13 09:27:00,
2013-10-13 04:28:00,39.0,36.6,29.06,West,270,0.0,0.0,91,0.00,CLR,,0.00,WeatherDisplay:10.37,2013-10-13 09:28:00,
2013-10-13 04:29:00,39.0,36.6,29.06,West,270,0.0,0.0,91,0.00,CLR,,0.00,WeatherDisplay:10.37,2013-10-13 09:29:00,
2013-10-13 04:30:00,38.8,36.4,29.06,West,270,0.0,0.0,91,0.00,CLR,,0.00,WeatherDisplay:10.37,2013-10-13 09:30:00,
2013-10-13 04:33:00,38.7,36.3,29.06,West,270,0.0,0.0,91,0.00,CLR,,0.00,WeatherDisplay:10.37,2013-10-13 09:33:00,
2013-10-13 04:34:00,38.7,36.3,29.06,West,270,0.0,0.0,91,0.00,CLR,,0.00,WeatherDisplay:10.37,2013-10-13 09:34:00,
2013-10-13 04:36:00,38.5,35.8,29.06,West,270,0.0,0.0,90,0.00,CLR,,0.00,WeatherDisplay:10.37,2013-10-13 09:36:00,
2013-10-13 04:39:00,38.3,35.6,29.06,West,270,0.0,0.0,90,0.00,CLR,,0.00,WeatherDisplay:10.37,2013-10-13 09:39:00,
2013-10-13 04:41:00,38.1,35.4,29.06,West,270,0.0,0.0,90,0.00,CLR,,0.00,WeatherDisplay:10.37,2013-10-13 09:41:00,
2013-10-13 04:44:00,38.1,35.4,29.06,West,270,0.0,0.0,90,0.00,CLR,,0.00,WeatherDisplay:10.37,2013-10-13 09:44:00,
2013-10-13 04:45:00,38.1,35.4,29.06,West,270,0.0,0.0,90,0.00,CLR,,0.00,WeatherDisplay:10.37,2013-10-13 09:45:00,
2013-10-13 04:47:00,38.1,35.4,29.06,West,270,1.2,0.0,90,0.00,CLR,,0.00,WeatherDisplay:10.37,2013-10-13 09:47:00,
2013-10-13 04:49:00,38.1,35.4,29.06,WSW,248,1.2,0.0,90,0.00,CLR,,0.00,WeatherDisplay:10.37,2013-10-13 09:49:00,
2013-10-13 04:50:00,38.1,35.4,29.06,WSW,248,0.0,0.0,90,0.00,CLR,,0.00,WeatherDisplay:10.37,2013-10-13 09:50:00,
2013-10-13 04:52:00,38.1,35.4,29.06,WNW,292,1.2,1.2,90,0.00,CLR,,0.00,WeatherDisplay:10.37,2013-10-13 09:52:00,
2013-10-13 04:54:00,38.1,35.4,29.06,WNW,292,2.3,2.3,90,0.00,CLR,,0.00,WeatherDisplay:10.37,2013-10-13 09:54:00,
2013-10-13 04:55:00,37.9,35.3,29.09,WNW,292,2.3,2.3,90,0.00,CLR,,0.00,WeatherDisplay:10.37,2013-10-13 09:55:00,
2013-10-13 04:58:00,37.8,34.8,29.09,WNW,292,1.2,0.0,89,0.00,CLR,,0.00,WeatherDisplay:10.37,2013-10-13 09:58:00,
2013-10-13 04:59:00,37.8,34.8,29.09,WNW,292,0.0,0.0,89,0.00,CLR,,0.00,WeatherDisplay:10.37,2013-10-13 09:59:00,
2013-10-13 05:00:00,37.6,34.6,29.09,WNW,292,0.0,0.0,89,0.00,CLR,,0.00,WeatherDisplay:10.37,2013-10-13 10:00:00,
2013-10-13 05:03:00,37.4,34.5,29.09,WNW,292,0.0,0.0,89,0.00,CLR,,0.00,WeatherDisplay:10.37,2013-10-13 10:03:00,
2013-10-13 05:04:00,37.2,34.6,29.09,WNW,292,0.0,0.0,90,0.00,CLR,,0.00,WeatherDisplay:10.37,2013-10-13 10:04:00,
2013-10-13 05:05:00,37.2,34.6,29.09,WNW,292,0.0,0.0,90,0.00,CLR,,0.00,WeatherDisplay:10.37,2013-10-13 10:05:00,
2013-10-13 05:06:00,37.2,34.3,29.09,WNW,292,0.0,0.0,89,0.00,CLR,,0.00,WeatherDisplay:10.37,2013-10-13 10:06:00,
2013-10-13 05:08:00,37.0,34.1,29.09,WNW,292,0.0,0.0,89,0.00,CLR,,0.00,WeatherDisplay:10.37,2013-10-13 10:08:00,
2013-10-13 05:10:00,36.9,33.9,29.09,NW,315,0.0,0.0,89,0.00,CLR,,0.00,WeatherDisplay:10.37,2013-10-13 10:10:00,
2013-10-13 05:11:00,36.9,33.9,29.09,NW,315,0.0,0.0,89,0.00,CLR,,0.00,WeatherDisplay:10.37,2013-10-13 10:11:00,
2013-10-13 05:13:00,36.7,33.7,29.09,NW,315,0.0,0.0,89,0.00,CLR,,0.00,WeatherDisplay:10.37,2013-10-13 10:13:00,
2013-10-13 05:15:00,36.5,33.6,29.09,NW,315,0.0,0.0,89,0.00,CLR,,0.00,WeatherDisplay:10.37,2013-10-13 10:15:00,
2013-10-13 05:16:00,36.3,33.4,29.09,NW,315,0.0,0.0,89,0.00,CLR,,0.00,WeatherDisplay:10.37,2013-10-13 10:16:00,
2013-10-13 05:18:00,36.3,33.4,29.09,NW,315,0.0,0.0,89,0.00,CLR,,0.00,WeatherDisplay:10.37,2013-10-13 10:18:00,
2013-10-13 05:20:00,36.1,33.2,29.09,NW,315,0.0,0.0,89,0.00,CLR,,0.00,WeatherDisplay:10.37,2013-10-13 10:20:00,
2013-10-13 05:21:00,36.0,33.0,29.09,NW,315,0.0,0.0,89,0.00,CLR,,0.00,WeatherDisplay:10.37,2013-10-13 10:21:00,
2013-10-13 05:22:00,35.8,32.9,29.09,NW,315,0.0,0.0,89,0.00,CLR,,0.00,WeatherDisplay:10.37,2013-10-13 10:22:00,
2013-10-13 05:23:00,35.8,32.9,29.09,NW,315,0.0,0.0,89,0.00,CLR,,0.00,WeatherDisplay:10.37,2013-10-13 10:23:00,
2013-10-13 05:25:00,35.8,32.9,29.10,NW,315,0.0,0.0,89,0.00,CLR,,0.00,WeatherDisplay:10.37,2013-10-13 10:25:00,
2013-10-13 05:26:00,36.0,33.0,29.12,NW,315,0.0,0.0,89,0.00,CLR,,0.00,WeatherDisplay:10.37,2013-10-13 10:26:00,
2013-10-13 05:27:00,36.0,33.0,29.12,NW,315,0.0,0.0,89,0.00,CLR,,0.00,WeatherDisplay:10.37,2013-10-13 10:27:00,
2013-10-13 05:29:00,35.8,32.9,29.12,NW,315,0.0,0.0,89,0.00,CLR,,0.00,WeatherDisplay:10.37,2013-10-13 10:29:00,
2013-10-13 05:30:00,35.8,32.9,29.12,NW,315,0.0,0.0,89,0.00,CLR,,0.00,WeatherDisplay:10.37,2013-10-13 10:30:00,
2013-10-13 05:31:00,35.8,32.9,29.12,NW,315,0.0,0.0,89,0.00,CLR,,0.00,WeatherDisplay:10.37,2013-10-13 10:31:00,
2013-10-13 05:32:00,35.8,33.1,29.12,NW,315,0.0,0.0,90,0.00,CLR,,0.00,WeatherDisplay:10.37,2013-10-13 10:32:00,
2013-10-13 05:34:00,35.8,33.1,29.12,NW,315,0.0,0.0,90,0.00,CLR,,0.00,WeatherDisplay:10.37,2013-10-13 10:34:00,
2013-10-13 05:35:00,35.8,33.1,29.12,NW,315,0.0,0.0,90,0.00,CLR,,0.00,WeatherDisplay:10.37,2013-10-13 10:35:00,
2013-10-13 05:36:00,35.6,33.0,29.12,NW,315,1.6,1.6,90,0.00,CLR,,0.00,WeatherDisplay:10.37,2013-10-13 10:36:00,
2013-10-13 05:37:00,35.6,33.0,29.12,WNW,292,2.3,2.3,90,0.00,CLR,,0.00,WeatherDisplay:10.37,2013-10-13 10:37:00,
2013-10-13 05:38:00,35.6,33.0,29.12,WNW,292,2.3,2.3,90,0.00,CLR,,0.00,WeatherDisplay:10.37,2013-10-13 10:38:00,
2013-10-13 05:39:00,35.8,33.1,29.12,West,270,2.3,2.4,90,0.00,CLR,,0.00,WeatherDisplay:10.37,2013-10-13 10:39:00,
2013-10-13 05:40:00,35.8,33.1,29.06,WNW,292,2.3,2.3,90,0.00,CLR,,0.00,WeatherDisplay:10.37,2013-10-13 10:40:00,
2013-10-13 05:41:00,35.8,33.1,29.06,NW,315,2.3,2.3,90,0.00,CLR,,0.00,WeatherDisplay:10.37,2013-10-13 10:41:00,
2013-10-13 05:42:00,35.8,33.1,29.06,NW,315,2.3,2.3,90,0.00,CLR,,0.00,WeatherDisplay:10.37,2013-10-13 10:42:00,
2013-10-13 05:43:00,35.8,33.1,29.06,NW,315,1.4,1.4,90,0.00,CLR,,0.00,WeatherDisplay:10.37,2013-10-13 10:43:00,
2013-10-13 05:45:00,35.8,33.1,29.06,NW,315,1.6,1.6,90,0.00,CLR,,0.00,WeatherDisplay:10.37,2013-10-13 10:45:00,
2013-10-13 05:46:00,35.6,33.0,29.06,NW,315,1.6,1.6,90,0.00,CLR,,0.00,WeatherDisplay:10.37,2013-10-13 10:46:00,
2013-10-13 05:47:00,35.6,33.0,29.06,NW,315,2.3,2.3,90,0.00,CLR,,0.00,WeatherDisplay:10.37,2013-10-13 10:47:00,
2013-10-13 05:48:00,35.6,33.0,29.06,NW,315,2.3,2.3,90,0.00,CLR,,0.00,WeatherDisplay:10.37,2013-10-13 10:48:00,
2013-10-13 05:50:00,35.6,33.0,29.06,NW,315,2.3,2.3,90,0.00,CLR,,0.00,WeatherDisplay:10.37,2013-10-13 10:50:00,
2013-10-13 05:51:00,35.6,33.0,29.06,NW,315,2.3,2.3,90,0.00,CLR,,0.00,WeatherDisplay:10.37,2013-10-13 10:51:00,
2013-10-13 05:52:00,35.6,33.0,29.06,NW,315,2.3,2.3,90,0.00,CLR,,0.00,WeatherDisplay:10.37,2013-10-13 10:52:00,
2013-10-13 05:53:00,35.6,33.0,29.06,WNW,292,2.3,2.3,90,0.00,CLR,,0.00,WeatherDisplay:10.37,2013-10-13 10:53:00,
2013-10-13 05:55:00,35.6,33.0,29.09,WNW,292,2.4,2.4,90,0.00,CLR,,0.00,WeatherDisplay:10.37,2013-10-13 10:55:00,
2013-10-13 05:56:00,35.6,33.0,29.09,NW,315,2.3,2.3,90,0.00,CLR,,0.00,WeatherDisplay:10.37,2013-10-13 10:56:00,
2013-10-13 05:58:00,35.6,33.0,29.09,NW,315,1.2,1.4,90,0.00,CLR,,0.00,WeatherDisplay:10.37,2013-10-13 10:58:00,
2013-10-13 05:59:00,35.6,33.0,29.09,NW,315,1.4,0.0,90,0.00,CLR,,0.00,WeatherDisplay:10.37,2013-10-13 10:59:00,
2013-10-13 06:01:00,35.4,33.1,29.09,NW,315,1.4,1.4,91,0.00,CLR,,0.00,WeatherDisplay:10.37,2013-10-13 11:01:00,
2013-10-13 06:02:00,35.4,33.1,29.09,WNW,292,1.6,1.6,91,0.00,CLR,,0.00,WeatherDisplay:10.37,2013-10-13 11:02:00,
2013-10-13 06:03:00,35.4,33.1,29.09,WNW,292,1.6,1.6,91,0.00,CLR,,0.00,WeatherDisplay:10.37,2013-10-13 11:03:00,
2013-10-13 06:04:00,35.4,33.1,29.09,NW,315,1.4,1.4,91,0.00,CLR,,0.00,WeatherDisplay:10.37,2013-10-13 11:04:00,
2013-10-13 06:06:00,35.6,33.2,29.09,NW,315,2.4,2.4,91,0.00,CLR,,0.00,WeatherDisplay:10.37,2013-10-13 11:06:00,
2013-10-13 06:07:00,35.6,33.2,29.09,NW,315,2.4,2.4,91,0.00,CLR,,0.00,WeatherDisplay:10.37,2013-10-13 11:07:00,
2013-10-13 06:08:00,35.6,33.2,29.09,WNW,292,2.3,2.3,91,0.00,CLR,,0.00,WeatherDisplay:10.37,2013-10-13 11:08:00,
2013-10-13 06:09:00,35.6,33.2,29.09,WNW,292,2.4,2.4,91,0.00,CLR,,0.00,WeatherDisplay:10.37,2013-10-13 11:09:00,
2013-10-13 06:11:00,35.4,33.3,29.12,West,270,2.6,2.6,92,0.00,CLR,,0.00,WeatherDisplay:10.37,2013-10-13 11:11:00,
2013-10-13 06:12:00,35.4,33.3,29.12,NW,315,2.3,2.3,92,0.00,CLR,,0.00,WeatherDisplay:10.37,2013-10-13 11:12:00,
2013-10-13 06:14:00,35.6,33.5,29.12,WNW,292,2.3,2.3,92,0.00,CLR,,0.00,WeatherDisplay:10.37,2013-10-13 11:14:00,
2013-10-13 06:16:00,35.6,33.5,29.12,WNW,292,2.4,2.4,92,0.00,CLR,,0.00,WeatherDisplay:10.37,2013-10-13 11:16:00,
2013-10-13 06:17:00,35.6,33.5,29.12,West,270,2.3,2.3,92,0.00,CLR,,0.00,WeatherDisplay:10.37,2013-10-13 11:17:00,
2013-10-13 06:19:00,35.4,33.3,29.12,West,270,1.2,1.2,92,0.00,CLR,,0.00,WeatherDisplay:10.37,2013-10-13 11:19:00,
2013-10-13 06:20:00,35.4,33.3,29.12,West,270,0.0,0.9,92,0.00,CLR,,0.00,WeatherDisplay:10.37,2013-10-13 11:20:00,
2013-10-13 06:22:00,35.4,33.3,29.12,WNW,292,1.2,0.0,92,0.00,CLR,,0.00,WeatherDisplay:10.37,2013-10-13 11:22:00,
2013-10-13 06:24:00,35.1,33.2,29.12,NW,315,2.0,0.0,93,0.00,CLR,,0.00,WeatherDisplay:10.37,2013-10-13 11:24:00,
2013-10-13 06:25:00,35.1,33.2,29.12,NW,315,2.3,2.3,93,0.00,CLR,,0.00,WeatherDisplay:10.37,2013-10-13 11:25:00,
2013-10-13 06:27:00,35.1,33.0,29.12,NW,315,2.3,2.3,92,0.00,CLR,,0.00,WeatherDisplay:10.37,2013-10-13 11:27:00,
2013-10-13 06:28:00,35.2,33.1,29.12,WNW,292,2.4,2.4,92,0.00,CLR,,0.00,WeatherDisplay:10.37,2013-10-13 11:28:00,
2013-10-13 06:29:00,35.2,33.1,29.12,NW,315,2.3,2.3,92,0.00,CLR,,0.00,WeatherDisplay:10.37,2013-10-13 11:29:00,
2013-10-13 06:30:00,35.2,33.1,29.12,NW,315,2.3,2.3,92,0.00,CLR,,0.00,WeatherDisplay:10.37,2013-10-13 11:30:00,
2013-10-13 06:31:00,35.1,33.0,29.12,NW,315,0.0,0.0,92,0.00,CLR,,0.00,WeatherDisplay:10.37,2013-10-13 11:31:00,
2013-10-13 06:32:00,35.1,33.0,29.12,NW,315,1.6,1.6,92,0.00,CLR,,0.00,WeatherDisplay:10.37,2013-10-13 11:32:00,
2013-10-13 06:34:00,35.1,33.0,29.12,NW,315,2.3,2.3,92,0.00,CLR,,0.00,WeatherDisplay:10.37,2013-10-13 11:34:00,
2013-10-13 06:35:00,35.1,33.2,29.12,NW,315,1.2,1.2,93,0.00,CLR,,0.00,WeatherDisplay:10.37,2013-10-13 11:35:00,
2013-10-13 06:36:00,35.1,33.2,29.12,WNW,292,2.3,2.3,93,0.00,CLR,,0.00,WeatherDisplay:10.37,2013-10-13 11:36:00,
2013-10-13 06:37:00,35.1,33.2,29.12,NW,315,2.4,2.4,93,0.00,CLR,,0.00,WeatherDisplay:10.37,2013-10-13 11:37:00,
2013-10-13 06:39:00,35.2,33.4,29.12,NW,315,2.3,2.3,93,0.00,CLR,,0.00,WeatherDisplay:10.37,2013-10-13 11:39:00,
2013-10-13 06:40:00,35.1,33.2,29.12,NW,315,2.3,2.3,93,0.00,CLR,,0.00,WeatherDisplay:10.37,2013-10-13 11:40:00,
2013-10-13 06:41:00,35.1,33.2,29.12,NW,315,1.6,1.6,93,0.00,CLR,,0.00,WeatherDisplay:10.37,2013-10-13 11:41:00,
2013-10-13 06:42:00,35.1,33.2,29.12,NW,315,1.2,1.2,93,0.00,CLR,,0.00,WeatherDisplay:10.37,2013-10-13 11:42:00,
2013-10-13 06:44:00,35.1,33.2,29.12,NW,315,2.6,2.6,93,0.00,CLR,,0.00,WeatherDisplay:10.37,2013-10-13 11:44:00,
2013-10-13 06:45:00,35.1,33.2,29.12,NW,315,2.3,2.3,93,0.00,CLR,,0.00,WeatherDisplay:10.37,2013-10-13 11:45:00,
2013-10-13 06:46:00,35.1,33.2,29.12,NW,315,2.3,2.3,93,0.00,CLR,,0.00,WeatherDisplay:10.37,2013-10-13 11:46:00,
2013-10-13 06:47:00,35.1,33.2,29.12,NW,315,1.2,1.2,93,0.00,CLR,,0.00,WeatherDisplay:10.37,2013-10-13 11:47:00,
2013-10-13 06:49:00,35.1,33.2,29.12,NW,315,0.0,0.0,93,0.00,CLR,,0.00,WeatherDisplay:10.37,2013-10-13 11:49:00,
2013-10-13 06:50:00,34.9,33.1,29.12,NW,315,0.0,0.0,93,0.00,CLR,,0.00,WeatherDisplay:10.37,2013-10-13 11:50:00,
2013-10-13 06:51:00,34.9,33.1,29.12,NW,315,1.2,0.0,93,0.00,CLR,,0.00,WeatherDisplay:10.37,2013-10-13 11:51:00,
2013-10-13 06:52:00,34.9,33.1,29.12,NW,315,1.2,1.4,93,0.00,CLR,,0.00,WeatherDisplay:10.37,2013-10-13 11:52:00,
2013-10-13 06:54:00,34.9,33.1,29.12,NW,315,2.4,2.4,93,0.00,CLR,,0.00,WeatherDisplay:10.37,2013-10-13 11:54:00,
2013-10-13 06:55:00,34.7,33.2,29.12,NW,315,2.3,2.3,94,0.00,CLR,,0.00,WeatherDisplay:10.37,2013-10-13 11:55:00,
2013-10-13 06:56:00,34.7,33.2,29.12,NW,315,1.6,1.6,94,0.00,CLR,,0.00,WeatherDisplay:10.37,2013-10-13 11:56:00,
2013-10-13 06:57:00,34.7,32.9,29.12,NW,315,1.6,1.6,93,0.00,CLR,,0.00,WeatherDisplay:10.37,2013-10-13 11:57:00,
2013-10-13 06:59:00,34.7,32.9,29.12,NW,315,2.3,2.3,93,0.00,CLR,,0.00,WeatherDisplay:10.37,2013-10-13 11:59:00,
2013-10-13 07:01:00,34.7,33.2,29.12,NW,315,1.4,1.4,94,0.00,CLR,,0.00,WeatherDisplay:10.37,2013-10-13 12:01:00,
2013-10-13 07:02:00,34.7,33.2,29.12,NW,315,1.2,1.4,94,0.00,CLR,,0.00,WeatherDisplay:10.37,2013-10-13 12:02:00,
2013-10-13 07:03:00,34.5,33.0,29.12,NW,315,1.2,1.2,94,0.00,CLR,,0.00,WeatherDisplay:10.37,2013-10-13 12:03:00,
2013-10-13 07:05:00,34.5,33.0,29.12,NW,315,0.0,0.0,94,0.00,CLR,,0.00,WeatherDisplay:10.37,2013-10-13 12:05:00,
2013-10-13 07:06:00,34.3,32.8,29.12,NW,315,0.0,0.0,94,0.00,CLR,,0.00,WeatherDisplay:10.37,2013-10-13 12:06:00,
2013-10-13 07:07:00,34.3,32.8,29.12,NW,315,0.0,0.0,94,0.00,CLR,,0.00,WeatherDisplay:10.37,2013-10-13 12:07:00,
2013-10-13 07:08:00,34.2,32.6,29.12,NW,315,0.0,0.0,94,0.00,CLR,,0.00,WeatherDisplay:10.37,2013-10-13 12:08:00,
2013-10-13 07:10:00,34.2,32.6,29.15,NW,315,0.0,0.0,94,0.00,CLR,,0.00,WeatherDisplay:10.37,2013-10-13 12:10:00,
2013-10-13 07:11:00,34.2,32.6,29.15,NW,315,0.0,0.0,94,0.00,CLR,,0.00,WeatherDisplay:10.37,2013-10-13 12:11:00,
2013-10-13 07:12:00,34.2,32.6,29.15,NW,315,0.0,0.0,94,0.00,CLR,,0.00,WeatherDisplay:10.37,2013-10-13 12:12:00,
2013-10-13 07:13:00,34.2,32.6,29.15,NW,315,2.2,2.2,94,0.00,CLR,,0.00,WeatherDisplay:10.37,2013-10-13 12:13:00,
2013-10-13 07:15:00,34.3,32.8,29.15,WNW,292,1.6,1.6,94,0.00,CLR,,0.00,WeatherDisplay:10.37,2013-10-13 12:15:00,
2013-10-13 07:16:00,34.3,32.8,29.15,WNW,292,2.3,2.3,94,0.00,CLR,,0.00,WeatherDisplay:10.37,2013-10-13 12:16:00,
2013-10-13 07:18:00,34.3,32.8,29.15,WSW,248,2.9,2.9,94,0.00,CLR,,0.00,WeatherDisplay:10.37,2013-10-13 12:18:00,
2013-10-13 07:20:00,34.5,33.0,29.15,WSW,248,1.2,0.0,94,0.00,CLR,,0.00,WeatherDisplay:10.37,2013-10-13 12:20:00,
2013-10-13 07:22:00,34.5,33.0,29.15,WSW,248,0.0,0.0,94,0.00,CLR,,0.00,WeatherDisplay:10.37,2013-10-13 12:22:00,
2013-10-13 07:23:00,34.5,33.0,29.15,WSW,248,2.3,0.0,94,0.00,CLR,,0.00,WeatherDisplay:10.37,2013-10-13 12:23:00,
2013-10-13 07:24:00,34.5,33.0,29.15,WSW,248,2.3,2.3,94,0.00,CLR,,0.00,WeatherDisplay:10.37,2013-10-13 12:24:00,
2013-10-13 07:25:00,34.9,33.3,29.15,WSW,248,0.0,0.0,94,0.00,CLR,,0.00,WeatherDisplay:10.37,2013-10-13 12:25:00,
2013-10-13 07:27:00,35.2,33.7,29.15,WSW,248,0.0,0.0,94,0.00,CLR,,0.00,WeatherDisplay:10.37,2013-10-13 12:27:00,
2013-10-13 07:28:00,35.2,33.7,29.15,WSW,248,0.0,0.0,94,0.00,CLR,,0.00,WeatherDisplay:10.37,2013-10-13 12:28:00,
2013-10-13 07:29:00,35.4,33.9,29.15,WSW,248,0.0,0.0,94,0.00,CLR,,0.00,WeatherDisplay:10.37,2013-10-13 12:29:00,
2013-10-13 07:31:00,35.8,34.2,29.15,WSW,248,0.0,0.0,94,0.00,CLR,,0.00,WeatherDisplay:10.37,2013-10-13 12:31:00,
2013-10-13 07:32:00,35.8,34.2,29.15,WSW,248,0.0,0.0,94,0.00,CLR,,0.00,WeatherDisplay:10.37,2013-10-13 12:32:00,
2013-10-13 07:33:00,36.1,34.6,29.15,WSW,248,0.0,0.0,94,0.00,CLR,,0.00,WeatherDisplay:10.37,2013-10-13 12:33:00,
2013-10-13 07:34:00,36.3,34.8,29.15,WSW,248,0.0,0.0,94,0.00,CLR,,0.00,WeatherDisplay:10.37,2013-10-13 12:34:00,
2013-10-13 07:37:00,36.9,35.6,29.15,WSW,248,0.0,0.0,95,0.00,CLR,,0.00,WeatherDisplay:10.37,2013-10-13 12:37:00,
2013-10-13 07:38:00,37.0,35.7,29.15,West,270,1.2,0.0,95,0.00,CLR,,0.00,WeatherDisplay:10.37,2013-10-13 12:38:00,
2013-10-13 07:39:00,37.6,36.3,29.15,West,270,1.2,0.0,95,0.00,CLR,,0.00,WeatherDisplay:10.37,2013-10-13 12:39:00,
2013-10-13 07:40:00,37.5,36.1,29.15,WSW,256,0.0,1.0,95,0.00,CLR,,0.00,WeatherDisplay:10.37,2013-10-13 12:40:00,
2013-10-13 07:42:00,38.1,36.8,29.15,West,270,0.0,0.0,95,0.00,CLR,,0.00,WeatherDisplay:10.37,2013-10-13 12:42:00,
2013-10-13 07:43:00,38.1,36.8,29.15,West,270,0.0,0.0,95,0.00,CLR,,0.00,WeatherDisplay:10.37,2013-10-13 12:43:00,
2013-10-13 07:44:00,38.1,36.8,29.15,West,270,0.0,0.0,95,0.00,CLR,,0.00,WeatherDisplay:10.37,2013-10-13 12:44:00,
2013-10-13 07:45:00,38.7,37.4,29.15,West,270,0.0,0.0,95,0.00,CLR,,0.00,WeatherDisplay:10.37,2013-10-13 12:45:00,
2013-10-13 07:48:00,39.2,37.9,29.15,West,270,0.0,0.0,95,0.00,CLR,,0.00,WeatherDisplay:10.37,2013-10-13 12:48:00,
2013-10-13 07:49:00,39.4,38.1,29.15,West,270,0.0,0.0,95,0.00,CLR,,0.00,WeatherDisplay:10.37,2013-10-13 12:49:00,
2013-10-13 07:50:00,39.6,38.2,29.15,West,270,0.0,0.0,95,0.00,CLR,,0.00,WeatherDisplay:10.37,2013-10-13 12:50:00,
2013-10-13 07:53:00,39.9,38.9,29.15,North,0,2.3,2.3,96,0.00,CLR,,0.00,WeatherDisplay:10.37,2013-10-13 12:53:00,
2013-10-13 07:54:00,40.3,39.2,29.15,North,0,2.3,2.3,96,0.00,CLR,,0.00,WeatherDisplay:10.37,2013-10-13 12:54:00,
2013-10-13 07:55:00,40.6,39.6,29.15,North,0,2.3,2.3,96,0.00,CLR,,0.00,WeatherDisplay:10.37,2013-10-13 12:55:00,
2013-10-13 07:56:00,40.8,39.8,29.15,North,0,2.3,2.3,96,0.00,CLR,,0.00,WeatherDisplay:10.37,2013-10-13 12:56:00,
2013-10-13 07:58:00,41.0,39.9,29.15,North,0,2.3,0.0,96,0.00,CLR,,0.00,WeatherDisplay:10.37,2013-10-13 12:58:00,
2013-10-13 07:59:00,41.2,40.1,29.15,NW,315,2.6,2.6,96,0.00,CLR,,0.00,WeatherDisplay:10.37,2013-10-13 12:59:00,
2013-10-13 08:00:00,41.5,40.5,29.15,WNW,292,2.3,2.3,96,0.00,CLR,,0.00,WeatherDisplay:10.37,2013-10-13 13:00:00,
2013-10-13 08:02:00,41.7,40.9,29.15,NW,315,2.4,2.4,97,0.00,CLR,,0.00,WeatherDisplay:10.37,2013-10-13 13:02:00,
2013-10-13 08:03:00,41.9,41.1,29.15,West,270,3.5,3.5,97,0.00,CLR,,0.00,WeatherDisplay:10.37,2013-10-13 13:03:00,
2013-10-13 08:04:00,42.1,41.3,29.15,NW,315,3.5,3.5,97,0.00,CLR,,0.00,WeatherDisplay:10.37,2013-10-13 13:04:00,
2013-10-13 08:05:00,42.4,41.6,29.15,WNW,292,2.4,2.4,97,0.00,CLR,,0.00,WeatherDisplay:10.37,2013-10-13 13:05:00,
2013-10-13 08:06:00,42.4,41.6,29.15,WNW,292,2.3,2.3,97,0.00,CLR,,0.00,WeatherDisplay:10.37,2013-10-13 13:06:00,
2013-10-13 08:07:00,43.0,42.2,29.15,WNW,292,2.3,2.3,97,0.00,CLR,,0.00,WeatherDisplay:10.37,2013-10-13 13:07:00,
2013-10-13 08:08:00,43.3,42.5,29.15,NW,315,2.3,2.3,97,0.00,CLR,,0.00,WeatherDisplay:10.37,2013-10-13 13:08:00,
2013-10-13 08:09:00,43.5,42.7,29.15,NNW,338,2.3,2.3,97,0.00,CLR,,0.00,WeatherDisplay:10.37,2013-10-13 13:09:00,
2013-10-13 08:10:00,44.1,43.3,29.18,NW,315,2.3,2.3,97,0.00,CLR,,0.00,WeatherDisplay:10.37,2013-10-13 13:10:00,
2013-10-13 08:11:00,44.1,43.3,29.18,NW,315,2.9,2.9,97,0.00,CLR,,0.00,WeatherDisplay:10.37,2013-10-13 13:11:00,
2013-10-13 08:13:00,44.2,43.4,29.18,NW,315,2.3,2.6,97,0.00,CLR,,0.00,WeatherDisplay:10.37,2013-10-13 13:13:00,
2013-10-13 08:14:00,44.4,43.6,29.18,WNW,292,2.3,2.3,97,0.00,CLR,,0.00,WeatherDisplay:10.37,2013-10-13 13:14:00,
2013-10-13 08:15:00,45.1,44.3,29.18,NNW,338,2.3,2.3,97,0.00,CLR,,0.00,WeatherDisplay:10.37,2013-10-13 13:15:00,
2013-10-13 08:16:00,45.1,44.3,29.18,NNW,338,2.3,2.3,97,0.00,CLR,,0.00,WeatherDisplay:10.37,2013-10-13 13:16:00,
2013-10-13 08:18:00,45.5,44.4,29.18,NNW,338,2.3,2.3,96,0.00,CLR,,0.00,WeatherDisplay:10.37,2013-10-13 13:18:00,
2013-10-13 08:19:00,45.7,44.6,29.18,NNW,338,2.4,2.4,96,0.00,CLR,,0.00,WeatherDisplay:10.37,2013-10-13 13:19:00,
2013-10-13 08:20:00,45.9,44.5,29.18,NNW,338,2.3,2.3,95,0.00,CLR,,0.00,WeatherDisplay:10.37,2013-10-13 13:20:00,
2013-10-13 08:21:00,46.0,44.7,29.18,NNW,338,2.3,2.3,95,0.00,CLR,,0.00,WeatherDisplay:10.37,2013-10-13 13:21:00,
2013-10-13 08:23:00,46.2,44.9,29.18,WNW,292,3.5,3.5,95,0.00,CLR,,0.00,WeatherDisplay:10.37,2013-10-13 13:23:00,
2013-10-13 08:24:00,46.2,44.9,29.18,NW,315,3.5,3.5,95,0.00,CLR,,0.00,WeatherDisplay:10.37,2013-10-13 13:24:00,
2013-10-13 08:26:00,46.8,44.8,29.18,NNW,338,2.4,2.4,93,0.00,CLR,,0.00,WeatherDisplay:10.37,2013-10-13 13:26:00,
2013-10-13 08:28:00,47.1,44.9,29.18,North,0,3.5,3.5,92,0.00,CLR,,0.00,WeatherDisplay:10.37,2013-10-13 13:28:00,
2013-10-13 08:29:00,47.5,45.3,29.18,North,0,2.3,0.0,92,0.00,CLR,,0.00,WeatherDisplay:10.37,2013-10-13 13:29:00,
2013-10-13 08:31:00,48.0,45.8,29.18,North,0,2.3,2.3,92,0.00,CLR,,0.00,WeatherDisplay:10.37,2013-10-13 13:31:00,
2013-10-13 08:32:00,48.2,45.7,29.18,North,0,1.6,1.6,91,0.00,CLR,,0.00,WeatherDisplay:10.37,2013-10-13 13:32:00,
2013-10-13 08:34:00,48.6,45.8,29.18,North,0,2.3,2.3,90,0.00,CLR,,0.00,WeatherDisplay:10.37,2013-10-13 13:34:00,
2013-10-13 08:35:00,48.7,45.6,29.18,North,0,2.3,2.3,89,0.00,CLR,,0.00,WeatherDisplay:10.37,2013-10-13 13:35:00,
2013-10-13 08:36:00,48.9,45.8,29.18,North,0,2.3,2.3,89,0.00,CLR,,0.00,WeatherDisplay:10.37,2013-10-13 13:36:00,
2013-10-13 08:37:00,48.9,45.2,29.18,North,0,2.3,2.3,87,0.00,CLR,,0.00,WeatherDisplay:10.37,2013-10-13 13:37:00,
2013-10-13 08:39:00,49.5,45.4,29.18,North,0,2.4,2.4,86,0.00,CLR,,0.00,WeatherDisplay:10.37,2013-10-13 13:39:00,
2013-10-13 08:40:00,49.5,45.4,29.18,North,0,2.3,2.3,86,0.00,CLR,,0.00,WeatherDisplay:10.37,2013-10-13 13:40:00,
2013-10-13 08:41:00,49.8,45.5,29.18,North,0,2.3,2.3,85,0.00,CLR,,0.00,WeatherDisplay:10.37,2013-10-13 13:41:00,
2013-10-13 08:42:00,50.0,45.7,29.18,North,0,1.6,1.6,85,0.00,CLR,,0.00,WeatherDisplay:10.37,2013-10-13 13:42:00,
2013-10-13 08:43:00,50.0,45.7,29.18,North,0,1.2,1.4,85,0.00,CLR,,0.00,WeatherDisplay:10.37,2013-10-13 13:43:00,
2013-10-13 08:45:00,50.5,45.8,29.18,North,0,1.0,2.0,84,0.00,CLR,,0.00,WeatherDisplay:10.37,2013-10-13 13:45:00,
2013-10-13 08:46:00,50.9,46.2,29.18,NW,315,2.3,2.3,84,0.00,CLR,,0.00,WeatherDisplay:10.37,2013-10-13 13:46:00,
2013-10-13 08:48:00,51.4,46.4,29.18,WNW,292,2.6,2.6,83,0.00,CLR,,0.00,WeatherDisplay:10.37,2013-10-13 13:48:00,
2013-10-13 08:50:00,51.3,45.3,29.18,North,0,4.6,4.6,80,0.00,CLR,,0.00,WeatherDisplay:10.37,2013-10-13 13:50:00,
2013-10-13 08:51:00,50.9,43.3,29.18,NW,315,5.8,5.8,75,0.00,CLR,,0.00,WeatherDisplay:10.37,2013-10-13 13:51:00,
2013-10-13 08:53:00,51.1,43.1,29.18,West,270,4.6,4.6,74,0.00,CLR,,0.00,WeatherDisplay:10.37,2013-10-13 13:53:00,
2013-10-13 08:54:00,51.3,43.3,29.18,North,0,4.6,4.6,74,0.00,CLR,,0.00,WeatherDisplay:10.37,2013-10-13 13:54:00,
2013-10-13 08:55:00,51.3,42.9,29.20,NW,315,3.8,3.8,73,0.00,CLR,,0.00,WeatherDisplay:10.37,2013-10-13 13:55:00,
2013-10-13 08:56:00,51.4,43.4,29.20,NW,315,3.5,3.5,74,0.00,CLR,,0.00,WeatherDisplay:10.37,2013-10-13 13:56:00,
2013-10-13 08:58:00,51.6,42.5,29.20,WNW,292,4.6,4.6,71,0.00,CLR,,0.00,WeatherDisplay:10.37,2013-10-13 13:58:00,
2013-10-13 08:59:00,51.6,42.5,29.20,NNW,338,4.6,4.6,71,0.00,CLR,,0.00,WeatherDisplay:10.37,2013-10-13 13:59:00,
2013-10-13 09:00:00,51.6,41.8,29.20,NW,315,4.6,4.6,69,0.00,CLR,,0.00,WeatherDisplay:10.37,2013-10-13 14:00:00,
2013-10-13 09:01:00,51.6,41.8,29.20,NW,315,4.6,4.6,69,0.00,CLR,,0.00,WeatherDisplay:10.37,2013-10-13 14:01:00,
2013-10-13 09:02:00,51.4,40.8,29.20,West,270,8.1,8.1,67,0.00,CLR,,0.00,WeatherDisplay:10.37,2013-10-13 14:02:00,
2013-10-13 09:04:00,51.3,40.3,29.20,NNW,338,5.8,5.8,66,0.00,CLR,,0.00,WeatherDisplay:10.37,2013-10-13 14:04:00,
2013-10-13 09:05:00,51.4,40.8,29.20,NW,315,3.5,3.8,67,0.00,CLR,,0.00,WeatherDisplay:10.37,2013-10-13 14:05:00,
2013-10-13 09:06:00,51.8,41.2,29.20,NW,315,4.0,4.0,67,0.00,CLR,,0.00,WeatherDisplay:10.37,2013-10-13 14:06:00,
2013-10-13 09:07:00,51.4,40.1,29.20,WNW,292,6.9,6.9,65,0.00,CLR,,0.00,WeatherDisplay:10.37,2013-10-13 14:07:00,
2013-10-13 09:09:00,51.6,40.6,29.20,NW,315,7.4,7.4,66,0.00,CLR,,0.00,WeatherDisplay:10.37,2013-10-13 14:09:00,
2013-10-13 09:10:00,51.3,39.5,29.20,West,270,5.9,5.9,64,0.00,CLR,,0.00,WeatherDisplay:10.37,2013-10-13 14:10:00,
2013-10-13 09:12:00,51.3,39.1,29.20,NW,315,6.9,6.9,63,0.00,CLR,,0.00,WeatherDisplay:10.37,2013-10-13 14:12:00,
2013-10-13 09:13:00,51.3,39.1,29.20,North,0,6.9,6.9,63,0.00,CLR,,0.00,WeatherDisplay:10.37,2013-10-13 14:13:00,
2013-10-13 09:14:00,51.6,39.8,29.20,NW,315,5.8,5.8,64,0.00,CLR,,0.00,WeatherDisplay:10.37,2013-10-13 14:14:00,
2013-10-13 09:15:00,51.8,40.4,29.20,WNW,292,5.8,5.8,65,0.00,CLR,,0.00,WeatherDisplay:10.37,2013-10-13 14:15:00,
2013-10-13 09:17:00,51.6,39.0,29.20,NNW,338,8.1,8.1,62,0.00,CLR,,0.00,WeatherDisplay:10.37,2013-10-13 14:17:00,
2013-10-13 09:18:00,51.6,39.0,29.20,NNW,338,6.9,6.9,62,0.00,CLR,,0.00,WeatherDisplay:10.37,2013-10-13 14:18:00,
2013-10-13 09:20:00,52.0,39.8,29.20,WSW,248,5.8,5.8,63,0.00,CLR,,0.00,WeatherDisplay:10.37,2013-10-13 14:20:00,
2013-10-13 09:23:00,52.9,40.6,29.20,NW,315,4.6,4.6,63,0.00,CLR,,0.00,WeatherDisplay:10.37,2013-10-13 14:23:00,
2013-10-13 09:24:00,53.1,40.8,29.20,West,270,5.6,5.6,63,0.00,CLR,,0.00,WeatherDisplay:10.37,2013-10-13 14:24:00,
2013-10-13 09:25:00,53.1,40.4,29.20,NW,315,6.9,6.9,62,0.00,CLR,,0.00,WeatherDisplay:10.37,2013-10-13 14:25:00,
2013-10-13 09:26:00,53.1,40.4,29.20,West,270,5.8,5.8,62,0.00,CLR,,0.00,WeatherDisplay:10.37,2013-10-13 14:26:00,
2013-10-13 09:28:00,52.7,38.8,29.20,NNW,338,5.8,5.8,59,0.00,CLR,,0.00,WeatherDisplay:10.37,2013-10-13 14:28:00,
2013-10-13 09:29:00,52.9,38.9,29.20,North,0,4.6,4.6,59,0.00,CLR,,0.00,WeatherDisplay:10.37,2013-10-13 14:29:00,
2013-10-13 09:30:00,53.4,39.9,29.20,SW,225,4.9,4.9,60,0.00,CLR,,0.00,WeatherDisplay:10.37,2013-10-13 14:30:00,
2013-10-13 09:31:00,53.4,39.9,29.20,WSW,248,3.5,3.5,60,0.00,CLR,,0.00,WeatherDisplay:10.37,2013-10-13 14:31:00,
2013-10-13 09:33:00,53.8,39.8,29.20,NW,315,4.6,4.6,59,0.00,CLR,,0.00,WeatherDisplay:10.37,2013-10-13 14:33:00,
2013-10-13 09:34:00,54.0,39.5,29.20,West,270,4.6,4.6,58,0.00,CLR,,0.00,WeatherDisplay:10.37,2013-10-13 14:34:00,
2013-10-13 09:36:00,54.0,39.1,29.20,WNW,292,5.8,5.8,57,0.00,CLR,,0.00,WeatherDisplay:10.37,2013-10-13 14:36:00,
2013-10-13 09:38:00,54.1,39.7,29.20,NW,315,3.5,3.5,58,0.00,CLR,,0.00,WeatherDisplay:10.37,2013-10-13 14:38:00,
2013-10-13 09:39:00,54.5,40.0,29.20,North,0,3.5,3.5,58,0.00,CLR,,0.00,WeatherDisplay:10.37,2013-10-13 14:39:00,
2013-10-13 09:41:00,54.7,39.3,29.20,NNW,338,6.2,6.2,56,0.00,CLR,,0.00,WeatherDisplay:10.37,2013-10-13 14:41:00,
2013-10-13 09:42:00,54.5,38.2,29.20,NW,315,5.8,5.8,54,0.00,CLR,,0.00,WeatherDisplay:10.37,2013-10-13 14:42:00,
2013-10-13 09:43:00,55.0,39.6,29.20,NNW,338,3.5,3.5,56,0.00,CLR,,0.00,WeatherDisplay:10.37,2013-10-13 14:43:00,
2013-10-13 09:44:00,55.2,39.3,29.20,West,270,3.8,3.8,55,0.00,CLR,,0.00,WeatherDisplay:10.37,2013-10-13 14:44:00,
2013-10-13 09:45:00,55.2,39.3,29.20,NW,315,3.5,3.5,55,0.00,CLR,,0.00,WeatherDisplay:10.37,2013-10-13 14:45:00,
2013-10-13 09:46:00,55.4,37.6,29.20,NW,315,5.8,5.9,51,0.00,CLR,,0.00,WeatherDisplay:10.37,2013-10-13 14:46:00,
2013-10-13 09:47:00,55.0,37.2,29.20,WNW,292,8.1,8.1,51,0.00,CLR,,0.00,WeatherDisplay:10.37,2013-10-13 14:47:00,
2013-10-13 09:48:00,55.0,37.2,29.20,West,270,5.8,5.8,51,0.00,CLR,,0.00,WeatherDisplay:10.37,2013-10-13 14:48:00,
2013-10-13 09:50:00,55.2,37.9,29.20,NW,318,3.0,8.0,52,0.00,CLR,,0.00,WeatherDisplay:10.37,2013-10-13 14:50:00,
2013-10-13 09:51:00,55.4,38.1,29.20,WNW,292,4.6,4.6,52,0.00,CLR,,0.00,WeatherDisplay:10.37,2013-10-13 14:51:00,
2013-10-13 09:52:00,55.9,38.6,29.20,NNW,338,3.6,3.6,52,0.00,CLR,,0.00,WeatherDisplay:10.37,2013-10-13 14:52:00,
2013-10-13 09:53:00,56.1,38.2,29.20,NW,315,4.6,4.6,51,0.00,CLR,,0.00,WeatherDisplay:10.37,2013-10-13 14:53:00,
2013-10-13 09:55:00,56.3,37.9,29.20,NNE,22,5.8,5.8,50,0.00,CLR,,0.00,WeatherDisplay:10.37,2013-10-13 14:55:00,
2013-10-13 09:56:00,56.3,37.9,29.20,WNW,292,4.6,4.6,50,0.00,CLR,,0.00,WeatherDisplay:10.37,2013-10-13 14:56:00,
2013-10-13 09:57:00,56.3,36.8,29.20,NW,315,9.2,9.2,48,0.00,CLR,,0.00,WeatherDisplay:10.37,2013-10-13 14:57:00,
2013-10-13 09:58:00,56.3,36.8,29.20,NNW,338,8.1,8.1,48,0.00,CLR,,0.00,WeatherDisplay:10.37,2013-10-13 14:58:00,
2013-10-13 10:00:00,56.3,36.3,29.20,West,270,5.8,5.8,47,0.00,CLR,,0.00,WeatherDisplay:10.37,2013-10-13 15:00:00,
2013-10-13 10:01:00,56.3,36.3,29.20,West,270,6.9,6.9,47,0.00,CLR,,0.00,WeatherDisplay:10.37,2013-10-13 15:01:00,
2013-10-13 10:02:00,56.5,36.5,29.20,WNW,292,10.4,10.4,47,0.00,CLR,,0.00,WeatherDisplay:10.37,2013-10-13 15:02:00,
2013-10-13 10:03:00,56.7,37.2,29.20,NNW,338,4.6,4.6,48,0.00,CLR,,0.00,WeatherDisplay:10.37,2013-10-13 15:03:00,
2013-10-13 10:05:00,57.2,37.1,29.20,WNW,292,6.9,6.9,47,0.00,CLR,,0.00,WeatherDisplay:10.37,2013-10-13 15:05:00,
2013-10-13 10:06:00,57.6,36.9,29.20,WNW,292,6.9,6.9,46,0.00,CLR,,0.00,WeatherDisplay:10.37,2013-10-13 15:06:00,
2013-10-13 10:07:00,57.6,36.4,29.20,NW,315,6.0,6.0,45,0.00,CLR,,0.00,WeatherDisplay:10.37,2013-10-13 15:07:00,
2013-10-13 10:08:00,57.4,36.2,29.20,NW,315,8.1,8.1,45,0.00,CLR,,0.00,WeatherDisplay:10.37,2013-10-13 15:08:00,
2013-10-13 10:10:00,56.8,32.8,29.20,NW,315,10.4,10.4,40,0.00,CLR,,0.00,WeatherDisplay:10.37,2013-10-13 15:10:00,
2013-10-13 10:12:00,56.7,33.2,29.20,North,0,10.4,10.4,41,0.00,CLR,,0.00,WeatherDisplay:10.37,2013-10-13 15:12:00,
2013-10-13 10:13:00,56.1,31.5,29.20,North,0,10.9,10.9,39,0.00,CLR,,0.00,WeatherDisplay:10.37,2013-10-13 15:13:00,
2013-10-13 10:15:00,55.9,31.9,29.20,NNW,338,9.0,9.0,40,0.00,CLR,,0.00,WeatherDisplay:10.37,2013-10-13 15:15:00,
2013-10-13 10:17:00,56.5,31.8,29.20,NNW,338,9.2,9.2,39,0.00,CLR,,0.00,WeatherDisplay:10.37,2013-10-13 15:17:00,
2013-10-13 10:18:00,56.3,32.3,29.20,NW,315,11.5,11.5,40,0.00,CLR,,0.00,WeatherDisplay:10.37,2013-10-13 15:18:00,
2013-10-13 10:19:00,56.3,31.6,29.20,WNW,292,11.5,11.5,39,0.00,CLR,,0.00,WeatherDisplay:10.37,2013-10-13 15:19:00,
2013-10-13 10:21:00,56.5,33.0,29.20,NNW,338,8.1,8.1,41,0.00,CLR,,0.00,WeatherDisplay:10.37,2013-10-13 15:21:00,
2013-10-13 10:22:00,56.7,32.6,29.20,NW,315,5.8,5.8,40,0.00,CLR,,0.00,WeatherDisplay:10.37,2013-10-13 15:22:00,
2013-10-13 10:23:00,56.7,32.6,29.20,WNW,292,10.4,10.4,40,0.00,CLR,,0.00,WeatherDisplay:10.37,2013-10-13 15:23:00,
2013-10-13 10:24:00,56.8,32.1,29.20,NW,315,10.5,10.5,39,0.00,CLR,,0.00,WeatherDisplay:10.37,2013-10-13 15:24:00,
2013-10-13 10:26:00,56.8,31.5,29.20,NW,315,8.1,8.1,38,0.00,CLR,,0.00,WeatherDisplay:10.37,2013-10-13 15:26:00,
2013-10-13 10:27:00,56.7,31.3,29.20,WNW,292,10.4,10.4,38,0.00,CLR,,0.00,WeatherDisplay:10.37,2013-10-13 15:27:00,
2013-10-13 10:28:00,56.7,31.3,29.20,WNW,292,10.4,10.4,38,0.00,CLR,,0.00,WeatherDisplay:10.37,2013-10-13 15:28:00,
2013-10-13 10:29:00,56.8,31.5,29.20,North,0,8.1,8.1,38,0.00,CLR,,0.00,WeatherDisplay:10.37,2013-10-13 15:29:00,
2013-10-13 10:31:00,57.2,31.8,29.20,WNW,292,8.1,8.1,38,0.00,CLR,,0.00,WeatherDisplay:10.37,2013-10-13 15:31:00,
2013-10-13 10:33:00,57.2,32.4,29.20,NNW,338,8.5,8.5,39,0.00,CLR,,0.00,WeatherDisplay:10.37,2013-10-13 15:33:00,
2013-10-13 10:35:00,57.4,31.3,29.20,NNW,338,12.7,12.7,37,0.00,CLR,,0.00,WeatherDisplay:10.37,2013-10-13 15:35:00,
2013-10-13 10:36:00,57.6,31.5,29.20,NNW,338,8.1,8.1,37,0.00,CLR,,0.00,WeatherDisplay:10.37,2013-10-13 15:36:00,
2013-10-13 10:38:00,57.9,31.8,29.20,NW,315,8.1,8.1,37,0.00,CLR,,0.00,WeatherDisplay:10.37,2013-10-13 15:38:00,
2013-10-13 10:39:00,57.9,31.8,29.20,NNW,338,6.0,6.0,37,0.00,CLR,,0.00,WeatherDisplay:10.37,2013-10-13 15:39:00,
2013-10-13 10:40:00,57.9,31.8,29.20,NNW,338,8.7,8.7,37,0.00,CLR,,0.00,WeatherDisplay:10.37,2013-10-13 15:40:00,
2013-10-13 10:41:00,57.6,30.8,29.20,NNW,338,9.2,9.2,36,0.00,CLR,,0.00,WeatherDisplay:10.37,2013-10-13 15:41:00,
2013-10-13 10:43:00,57.6,31.5,29.20,NNW,338,8.1,8.1,37,0.00,CLR,,0.00,WeatherDisplay:10.37,2013-10-13 15:43:00,
2013-10-13 10:44:00,57.6,31.5,29.20,NW,315,6.9,6.9,37,0.00,CLR,,0.00,WeatherDisplay:10.37,2013-10-13 15:44:00,
2013-10-13 10:45:00,57.4,30.6,29.20,NE,45,11.5,11.5,36,0.00,CLR,,0.00,WeatherDisplay:10.37,2013-10-13 15:45:00,
2013-10-13 10:46:00,57.4,30.6,29.20,NNW,338,14.5,14.5,36,0.00,CLR,,0.00,WeatherDisplay:10.37,2013-10-13 15:46:00,
2013-10-13 10:49:00,57.4,31.3,29.20,North,0,11.5,11.5,37,0.00,CLR,,0.00,WeatherDisplay:10.37,2013-10-13 15:49:00,
2013-10-13 10:50:00,57.2,30.5,29.20,North,0,8.1,8.1,36,0.00,CLR,,0.00,WeatherDisplay:10.37,2013-10-13 15:50:00,
2013-10-13 10:51:00,57.2,30.5,29.20,NNW,338,8.1,8.1,36,0.00,CLR,,0.00,WeatherDisplay:10.37,2013-10-13 15:51:00,
2013-10-13 10:54:00,57.6,30.8,29.20,NW,315,11.5,11.5,36,0.00,CLR,,0.00,WeatherDisplay:10.37,2013-10-13 15:54:00,
2013-10-13 10:55:00,57.7,30.9,29.20,North,0,9.2,9.2,36,0.00,CLR,,0.00,WeatherDisplay:10.37,2013-10-13 15:55:00,
2013-10-13 10:56:00,57.7,30.9,29.20,North,0,6.9,6.9,36,0.00,CLR,,0.00,WeatherDisplay:10.37,2013-10-13 15:56:00,
2013-10-13 10:59:00,58.5,32.3,29.20,West,270,8.1,8.1,37,0.00,CLR,,0.00,WeatherDisplay:10.37,2013-10-13 15:59:00,
2013-10-13 11:00:00,58.5,32.3,29.20,NNW,338,6.9,6.9,37,0.00,CLR,,0.00,WeatherDisplay:10.37,2013-10-13 16:00:00,
2013-10-13 11:01:00,58.6,32.4,29.20,NNW,338,10.4,10.4,37,0.00,CLR,,0.00,WeatherDisplay:10.37,2013-10-13 16:01:00,
2013-10-13 11:02:00,58.6,31.7,29.20,NW,315,10.4,10.4,36,0.00,CLR,,0.00,WeatherDisplay:10.37,2013-10-13 16:02:00,
2013-10-13 11:05:00,57.9,31.1,29.20,WNW,292,8.1,8.1,36,0.00,CLR,,0.00,WeatherDisplay:10.37,2013-10-13 16:05:00,
2013-10-13 11:06:00,57.9,31.1,29.20,NNW,338,8.1,8.1,36,0.00,CLR,,0.00,WeatherDisplay:10.37,2013-10-13 16:06:00,
2013-10-13 11:07:00,58.1,31.3,29.20,NW,315,9.4,9.4,36,0.00,CLR,,0.00,WeatherDisplay:10.37,2013-10-13 16:07:00,
2013-10-13 11:10:00,57.2,30.5,29.20,WNW,292,13.8,13.8,36,0.00,CLR,,0.00,WeatherDisplay:10.37,2013-10-13 16:10:00,
2013-10-13 11:11:00,57.6,30.8,29.20,NW,315,10.7,10.7,36,0.00,CLR,,0.00,WeatherDisplay:10.37,2013-10-13 16:11:00,
2013-10-13 11:12:00,57.2,30.5,29.20,North,0,12.8,12.8,36,0.00,CLR,,0.00,WeatherDisplay:10.37,2013-10-13 16:12:00,
2013-10-13 11:15:00,57.2,31.1,29.20,North,0,11.5,11.5,37,0.00,CLR,,0.00,WeatherDisplay:10.37,2013-10-13 16:15:00,
2013-10-13 11:16:00,57.2,31.1,29.20,North,0,11.5,11.5,37,0.00,CLR,,0.00,WeatherDisplay:10.37,2013-10-13 16:16:00,
2013-10-13 11:17:00,57.7,31.6,29.20,NW,315,6.2,6.2,37,0.00,CLR,,0.00,WeatherDisplay:10.37,2013-10-13 16:17:00,
2013-10-13 11:20:00,58.1,31.9,29.20,North,0,9.2,9.2,37,0.00,CLR,,0.00,WeatherDisplay:10.37,2013-10-13 16:20:00,
2013-10-13 11:21:00,58.1,31.9,29.20,North,0,9.2,9.2,37,0.00,CLR,,0.00,WeatherDisplay:10.37,2013-10-13 16:21:00,
2013-10-13 11:22:00,58.1,31.9,29.20,NW,315,8.1,8.1,37,0.00,CLR,,0.00,WeatherDisplay:10.37,2013-10-13 16:22:00,
2013-10-13 11:26:00,58.5,32.3,29.20,WSW,248,8.1,8.1,37,0.00,CLR,,0.00,WeatherDisplay:10.37,2013-10-13 16:26:00,
2013-10-13 11:27:00,57.9,31.1,29.20,West,270,10.9,10.9,36,0.00,CLR,,0.00,WeatherDisplay:10.37,2013-10-13 16:27:00,
2013-10-13 11:28:00,58.1,31.9,29.20,NW,315,10.4,10.4,37,0.00,CLR,,0.00,WeatherDisplay:10.37,2013-10-13 16:28:00,
2013-10-13 11:31:00,57.9,31.1,29.20,North,0,9.2,9.2,36,0.00,CLR,,0.00,WeatherDisplay:10.37,2013-10-13 16:31:00,
2013-10-13 11:32:00,58.1,31.9,29.20,NW,315,8.1,8.1,37,0.00,CLR,,0.00,WeatherDisplay:10.37,2013-10-13 16:32:00,
2013-10-13 11:33:00,58.1,31.9,29.20,NW,315,9.2,9.2,37,0.00,CLR,,0.00,WeatherDisplay:10.37,2013-10-13 16:33:00,
2013-10-13 11:36:00,57.7,30.9,29.20,North,0,10.4,10.4,36,0.00,CLR,,0.00,WeatherDisplay:10.37,2013-10-13 16:36:00,
2013-10-13 11:37:00,57.7,30.9,29.20,NW,315,9.2,9.2,36,0.00,CLR,,0.00,WeatherDisplay:10.37,2013-10-13 16:37:00,
2013-10-13 11:38:00,57.7,30.2,29.20,NNW,338,11.5,11.5,35,0.00,CLR,,0.00,WeatherDisplay:10.37,2013-10-13 16:38:00,
2013-10-13 11:41:00,58.3,31.4,29.20,WNW,292,8.1,8.1,36,0.00,CLR,,0.00,WeatherDisplay:10.37,2013-10-13 16:41:00,
2013-10-13 11:42:00,58.3,31.4,29.20,NW,315,11.5,11.5,36,0.00,CLR,,0.00,WeatherDisplay:10.37,2013-10-13 16:42:00,
2013-10-13 11:43:00,58.1,30.6,29.20,North,0,11.5,11.5,35,0.00,CLR,,0.00,WeatherDisplay:10.37,2013-10-13 16:43:00,
2013-10-13 11:46:00,58.5,30.9,29.20,North,0,12.7,12.7,35,0.00,CLR,,0.00,WeatherDisplay:10.37,2013-10-13 16:46:00,
2013-10-13 11:47:00,58.8,31.2,29.20,North,0,9.2,9.2,35,0.00,CLR,,0.00,WeatherDisplay:10.37,2013-10-13 16:47:00,
2013-10-13 11:48:00,59.0,31.4,29.20,NNE,22,8.1,8.1,35,0.00,CLR,,0.00,WeatherDisplay:10.37,2013-10-13 16:48:00,
2013-10-13 11:51:00,59.4,31.7,29.20,NNW,338,6.9,6.9,35,0.00,CLR,,0.00,WeatherDisplay:10.37,2013-10-13 16:51:00,
2013-10-13 11:52:00,59.2,30.8,29.20,NW,315,10.5,10.5,34,0.00,CLR,,0.00,WeatherDisplay:10.37,2013-10-13 16:52:00,
2013-10-13 11:53:00,59.2,30.8,29.20,NNW,338,13.7,13.7,34,0.00,CLR,,0.00,WeatherDisplay:10.37,2013-10-13 16:53:00,
2013-10-13 11:54:00,58.1,29.8,29.24,NW,315,13.8,13.8,34,0.00,CLR,,0.00,WeatherDisplay:10.37,2013-10-13 16:54:00,
2013-10-13 11:56:00,58.1,30.6,29.24,NW,315,9.2,9.2,35,0.00,CLR,,0.00,WeatherDisplay:10.37,2013-10-13 16:56:00,
2013-10-13 11:58:00,58.5,30.9,29.24,WNW,292,9.2,9.2,35,0.00,CLR,,0.00,WeatherDisplay:10.37,2013-10-13 16:58:00,
2013-10-13 11:59:00,58.8,31.2,29.24,West,270,8.1,8.1,35,0.00,CLR,,0.00,WeatherDisplay:10.37,2013-10-13 16:59:00,
2013-10-13 12:00:00,58.5,30.9,29.24,West,270,10.4,10.4,35,0.00,CLR,,0.00,WeatherDisplay:10.37,2013-10-13 17:00:00,
2013-10-13 12:01:00,58.6,31.0,29.24,NNW,338,9.2,9.2,35,0.00,CLR,,0.00,WeatherDisplay:10.37,2013-10-13 17:01:00,
2013-10-13 12:03:00,58.6,31.0,29.24,North,0,8.1,8.1,35,0.00,CLR,,0.00,WeatherDisplay:10.37,2013-10-13 17:03:00,
2013-10-13 12:04:00,58.5,30.9,29.24,NW,315,9.2,9.2,35,0.00,CLR,,0.00,WeatherDisplay:10.37,2013-10-13 17:04:00,
2013-10-13 12:05:00,58.3,30.7,29.24,NNW,338,12.7,12.7,35,0.00,CLR,,0.00,WeatherDisplay:10.37,2013-10-13 17:05:00,
2013-10-13 12:06:00,58.3,30.0,29.24,NW,315,12.7,12.7,34,0.00,CLR,,0.00,WeatherDisplay:10.37,2013-10-13 17:06:00,
2013-10-13 12:08:00,58.6,31.0,29.24,WNW,292,5.8,5.8,35,0.00,CLR,,0.00,WeatherDisplay:10.37,2013-10-13 17:08:00,
2013-10-13 12:09:00,59.0,30.6,29.24,North,0,5.8,5.8,34,0.00,CLR,,0.00,WeatherDisplay:10.37,2013-10-13 17:09:00,
2013-10-13 12:10:00,59.4,31.7,29.20,WNW,292,8.1,8.1,35,0.00,CLR,,0.00,WeatherDisplay:10.37,2013-10-13 17:10:00,
2013-10-13 12:11:00,59.9,32.2,29.20,West,270,9.0,9.0,35,0.00,CLR,,0.00,WeatherDisplay:10.37,2013-10-13 17:11:00,
2013-10-13 12:13:00,58.8,31.2,29.20,NW,315,10.5,10.5,35,0.00,CLR,,0.00,WeatherDisplay:10.37,2013-10-13 17:13:00,
2013-10-13 12:14:00,58.8,31.2,29.20,NNW,338,10.4,10.4,35,0.00,CLR,,0.00,WeatherDisplay:10.37,2013-10-13 17:14:00,
2013-10-13 12:15:00,58.8,31.2,29.20,NW,315,10.4,10.4,35,0.00,CLR,,0.00,WeatherDisplay:10.37,2013-10-13 17:15:00,
2013-10-13 12:17:00,58.6,31.0,29.20,WNW,292,10.2,10.2,35,0.00,CLR,,0.00,WeatherDisplay:10.37,2013-10-13 17:17:00,
2013-10-13 12:18:00,58.6,31.0,29.20,NNE,22,10.4,10.4,35,0.00,CLR,,0.00,WeatherDisplay:10.37,2013-10-13 17:18:00,
2013-10-13 12:19:00,58.6,31.0,29.20,NNW,338,9.2,9.2,35,0.00,CLR,,0.00,WeatherDisplay:10.37,2013-10-13 17:19:00,
2013-10-13 12:20:00,58.8,31.2,29.20,North,0,10.4,10.4,35,0.00,CLR,,0.00,WeatherDisplay:10.37,2013-10-13 17:20:00,
2013-10-13 12:22:00,58.5,30.9,29.20,NNW,338,11.5,11.5,35,0.00,CLR,,0.00,WeatherDisplay:10.37,2013-10-13 17:22:00,
2013-10-13 12:23:00,58.5,30.9,29.20,NNE,22,11.5,11.5,35,0.00,CLR,,0.00,WeatherDisplay:10.37,2013-10-13 17:23:00,
2013-10-13 12:24:00,58.5,30.9,29.20,North,0,9.2,9.2,35,0.00,CLR,,0.00,WeatherDisplay:10.37,2013-10-13 17:24:00,
2013-10-13 12:25:00,58.6,31.0,29.20,North,0,10.2,10.2,35,0.00,CLR,,0.00,WeatherDisplay:10.37,2013-10-13 17:25:00,
2013-10-13 12:26:00,58.5,30.9,29.20,NNW,338,10.4,10.4,35,0.00,CLR,,0.00,WeatherDisplay:10.37,2013-10-13 17:26:00,
2013-10-13 12:27:00,58.5,30.9,29.20,NNE,22,10.4,10.4,35,0.00,CLR,,0.00,WeatherDisplay:10.37,2013-10-13 17:27:00,
2013-10-13 12:28:00,58.8,31.2,29.20,NNE,22,9.2,9.2,35,0.00,CLR,,0.00,WeatherDisplay:10.37,2013-10-13 17:28:00,
2013-10-13 12:29:00,58.8,31.2,29.20,NNW,338,9.2,9.2,35,0.00,CLR,,0.00,WeatherDisplay:10.37,2013-10-13 17:29:00,
2013-10-13 12:31:00,58.5,30.9,29.20,NNW,338,12.7,12.7,35,0.00,CLR,,0.00,WeatherDisplay:10.37,2013-10-13 17:31:00,
2013-10-13 12:32:00,58.5,30.9,29.20,WNW,292,12.7,12.7,35,0.00,CLR,,0.00,WeatherDisplay:10.37,2013-10-13 17:32:00,
2013-10-13 12:33:00,58.8,31.2,29.20,North,0,8.1,8.1,35,0.00,CLR,,0.00,WeatherDisplay:10.37,2013-10-13 17:33:00,
2013-10-13 12:34:00,59.0,30.6,29.20,NNE,22,8.1,8.1,34,0.00,CLR,,0.00,WeatherDisplay:10.37,2013-10-13 17:34:00,
2013-10-13 12:36:00,59.4,31.7,29.20,NW,315,6.9,6.9,35,0.00,CLR,,0.00,WeatherDisplay:10.37,2013-10-13 17:36:00,
2013-10-13 12:37:00,59.4,31.7,29.20,NW,315,6.9,6.9,35,0.00,CLR,,0.00,WeatherDisplay:10.37,2013-10-13 17:37:00,
2013-10-13 12:39:00,58.8,31.2,29.20,West,270,10.4,10.4,35,0.00,CLR,,0.00,WeatherDisplay:10.37,2013-10-13 17:39:00,
2013-10-13 12:42:00,58.8,31.2,29.20,WNW,292,11.5,11.5,35,0.00,CLR,,0.00,WeatherDisplay:10.37,2013-10-13 17:42:00,
2013-10-13 12:43:00,59.0,30.6,29.20,NNW,338,5.8,6.4,34,0.00,CLR,,0.00,WeatherDisplay:10.37,2013-10-13 17:43:00,
2013-10-13 12:44:00,59.0,30.6,29.20,North,0,8.1,8.1,34,0.00,CLR,,0.00,WeatherDisplay:10.37,2013-10-13 17:44:00,
2013-10-13 12:47:00,59.2,30.8,29.20,NNE,22,11.5,11.5,34,0.00,CLR,,0.00,WeatherDisplay:10.37,2013-10-13 17:47:00,
2013-10-13 12:48:00,58.8,30.5,29.20,NW,315,11.5,11.5,34,0.00,CLR,,0.00,WeatherDisplay:10.37,2013-10-13 17:48:00,
2013-10-13 12:49:00,58.6,31.0,29.20,NNE,22,11.5,11.5,35,0.00,CLR,,0.00,WeatherDisplay:10.37,2013-10-13 17:49:00,
2013-10-13 12:50:00,58.8,31.2,29.20,WNW,292,9.2,9.2,35,0.00,CLR,,0.00,WeatherDisplay:10.37,2013-10-13 17:50:00,
2013-10-13 12:52:00,58.6,31.0,29.20,NNW,338,8.1,8.5,35,0.00,CLR,,0.00,WeatherDisplay:10.37,2013-10-13 17:52:00,
2013-10-13 12:53:00,58.6,31.0,29.20,NW,315,8.1,8.5,35,0.00,CLR,,0.00,WeatherDisplay:10.37,2013-10-13 17:53:00,
2013-10-13 12:54:00,58.8,31.2,29.20,North,0,9.2,9.2,35,0.00,CLR,,0.00,WeatherDisplay:10.37,2013-10-13 17:54:00,
2013-10-13 12:55:00,58.8,31.2,29.20,North,0,6.9,6.9,35,0.00,CLR,,0.00,WeatherDisplay:10.37,2013-10-13 17:55:00,
2013-10-13 12:58:00,59.4,31.0,29.20,North,0,8.1,8.1,34,0.00,CLR,,0.00,WeatherDisplay:10.37,2013-10-13 17:58:00,
2013-10-13 12:59:00,59.4,31.0,29.20,NNW,338,8.1,8.1,34,0.00,CLR,,0.00,WeatherDisplay:10.37,2013-10-13 17:59:00,
2013-10-13 13:00:00,59.5,31.1,29.20,NW,315,9.2,9.2,34,0.00,CLR,,0.00,WeatherDisplay:10.37,2013-10-13 18:00:00,
2013-10-13 13:03:00,59.5,31.1,29.20,NNE,22,9.2,9.2,34,0.00,CLR,,0.00,WeatherDisplay:10.37,2013-10-13 18:03:00,
2013-10-13 13:04:00,59.2,30.8,29.20,NNW,338,10.4,10.4,34,0.00,CLR,,0.00,WeatherDisplay:10.37,2013-10-13 18:04:00,
2013-10-13 13:05:00,59.2,30.8,29.20,North,0,10.4,10.4,34,0.00,CLR,,0.00,WeatherDisplay:10.37,2013-10-13 18:05:00,
2013-10-13 13:08:00,59.0,30.6,29.20,NW,315,8.1,8.1,34,0.00,CLR,,0.00,WeatherDisplay:10.37,2013-10-13 18:08:00,
2013-10-13 13:09:00,59.0,30.6,29.20,NW,315,8.1,8.1,34,0.00,CLR,,0.00,WeatherDisplay:10.37,2013-10-13 18:09:00,
2013-10-13 13:10:00,59.2,30.8,29.20,North,0,8.1,8.1,34,0.00,CLR,,0.00,WeatherDisplay:10.37,2013-10-13 18:10:00,
2013-10-13 13:13:00,59.7,31.3,29.20,NW,315,8.1,8.1,34,0.00,CLR,,0.00,WeatherDisplay:10.37,2013-10-13 18:13:00,
2013-10-13 13:14:00,59.7,31.3,29.20,NNW,338,9.2,9.2,34,0.00,CLR,,0.00,WeatherDisplay:10.37,2013-10-13 18:14:00,
2013-10-13 13:15:00,59.9,32.2,29.20,NNW,338,10.2,10.2,35,0.00,CLR,,0.00,WeatherDisplay:10.37,2013-10-13 18:15:00,
2013-10-13 13:16:00,60.3,31.8,29.20,NNW,338,10.4,10.4,34,0.00,CLR,,0.00,WeatherDisplay:10.37,2013-10-13 18:16:00,
2013-10-13 13:19:00,60.4,31.9,29.20,NW,315,8.1,8.1,34,0.00,CLR,,0.00,WeatherDisplay:10.37,2013-10-13 18:19:00,
2013-10-13 13:20:00,60.4,31.9,29.20,NNW,338,7.8,7.8,34,0.00,CLR,,0.00,WeatherDisplay:10.37,2013-10-13 18:20:00,
2013-10-13 13:21:00,60.3,31.0,29.20,NW,315,9.2,9.2,33,0.00,CLR,,0.00,WeatherDisplay:10.37,2013-10-13 18:21:00,
2013-10-13 13:24:00,60.3,30.3,29.20,NW,315,8.1,8.1,32,0.00,CLR,,0.00,WeatherDisplay:10.37,2013-10-13 18:24:00,
2013-10-13 13:25:00,60.4,31.2,29.20,WNW,292,8.1,8.1,33,0.00,CLR,,0.00,WeatherDisplay:10.37,2013-10-13 18:25:00,
2013-10-13 13:26:00,60.4,30.4,29.20,WNW,292,8.1,8.1,32,0.00,CLR,,0.00,WeatherDisplay:10.37,2013-10-13 18:26:00,
2013-10-13 13:27:00,60.4,30.4,29.20,NW,315,8.1,8.1,32,0.00,CLR,,0.00,WeatherDisplay:10.37,2013-10-13 18:27:00,
2013-10-13 13:29:00,60.4,29.6,29.20,NW,315,8.1,8.1,31,0.00,CLR,,0.00,WeatherDisplay:10.37,2013-10-13 18:29:00,
2013-10-13 13:30:00,60.4,29.6,29.20,North,0,10.2,10.2,31,0.00,CLR,,0.00,WeatherDisplay:10.37,2013-10-13 18:30:00,
2013-10-13 13:31:00,60.3,29.5,29.20,NNW,338,10.4,10.4,31,0.00,CLR,,0.00,WeatherDisplay:10.37,2013-10-13 18:31:00,
2013-10-13 13:35:00,59.9,28.4,29.20,North,0,12.7,12.7,30,0.00,CLR,,0.00,WeatherDisplay:10.37,2013-10-13 18:35:00,
2013-10-13 13:36:00,60.4,28.8,29.20,NE,45,9.2,9.2,30,0.00,CLR,,0.00,WeatherDisplay:10.37,2013-10-13 18:36:00,
2013-10-13 13:40:00,61.0,30.1,29.20,NW,315,8.1,8.1,31,0.00,CLR,,0.00,WeatherDisplay:10.37,2013-10-13 18:40:00,
2013-10-13 13:41:00,61.2,30.3,29.20,North,0,9.2,9.2,31,0.00,CLR,,0.00,WeatherDisplay:10.37,2013-10-13 18:41:00,
2013-10-13 13:45:00,61.9,32.4,29.20,West,270,4.6,4.6,33,0.00,CLR,,0.00,WeatherDisplay:10.37,2013-10-13 18:45:00,
2013-10-13 13:47:00,62.6,33.1,29.20,North,0,4.6,4.6,33,0.00,CLR,,0.00,WeatherDisplay:10.37,2013-10-13 18:47:00,
2013-10-13 13:48:00,62.6,33.1,29.20,NNW,338,4.6,4.6,33,0.00,CLR,,0.00,WeatherDisplay:10.37,2013-10-13 18:48:00,
2013-10-13 13:50:00,62.1,31.0,29.20,North,0,9.2,9.2,31,0.00,CLR,,0.00,WeatherDisplay:10.37,2013-10-13 18:50:00,
2013-10-13 13:51:00,61.9,30.9,29.20,WNW,292,9.2,9.2,31,0.00,CLR,,0.00,WeatherDisplay:10.37,2013-10-13 18:51:00,
2013-10-13 13:52:00,61.5,29.8,29.20,NW,315,5.8,5.9,30,0.00,CLR,,0.00,WeatherDisplay:10.37,2013-10-13 18:52:00,
2013-10-13 13:53:00,61.5,29.8,29.20,NW,315,9.2,9.2,30,0.00,CLR,,0.00,WeatherDisplay:10.37,2013-10-13 18:53:00,
2013-10-13 13:55:00,61.5,29.8,29.20,NNW,338,8.1,8.1,30,0.00,CLR,,0.00,WeatherDisplay:10.37,2013-10-13 18:55:00,
2013-10-13 13:56:00,61.7,30.7,29.20,NW,315,5.8,5.8,31,0.00,CLR,,0.00,WeatherDisplay:10.37,2013-10-13 18:56:00,
2013-10-13 13:57:00,61.9,30.9,29.20,NW,315,4.6,4.6,31,0.00,CLR,,0.00,WeatherDisplay:10.37,2013-10-13 18:57:00,
2013-10-13 13:58:00,61.9,30.9,29.20,NNE,22,7.4,7.4,31,0.00,CLR,,0.00,WeatherDisplay:10.37,2013-10-13 18:58:00,
2013-10-13 14:00:00,61.3,30.4,29.20,NNE,22,9.2,9.2,31,0.00,CLR,,0.00,WeatherDisplay:10.37,2013-10-13 19:00:00,
2013-10-13 14:01:00,61.3,30.4,29.20,NE,45,6.9,6.9,31,0.00,CLR,,0.00,WeatherDisplay:10.37,2013-10-13 19:01:00,
2013-10-13 14:02:00,61.0,29.3,29.20,NW,315,10.4,10.4,30,0.00,CLR,,0.00,WeatherDisplay:10.37,2013-10-13 19:02:00,
2013-10-13 14:03:00,60.6,29.8,29.20,North,0,10.4,10.4,31,0.00,CLR,,0.00,WeatherDisplay:10.37,2013-10-13 19:03:00,
2013-10-13 14:05:00,61.2,30.3,29.20,North,0,5.8,5.8,31,0.00,CLR,,0.00,WeatherDisplay:10.37,2013-10-13 19:05:00,
2013-10-13 14:06:00,61.2,30.3,29.20,NW,315,5.8,5.8,31,0.00,CLR,,0.00,WeatherDisplay:10.37,2013-10-13 19:06:00,
2013-10-13 14:07:00,61.5,31.4,29.20,North,0,5.6,5.6,32,0.00,CLR,,0.00,WeatherDisplay:10.37,2013-10-13 19:07:00,
2013-10-13 14:08:00,61.3,30.4,29.20,ENE,68,7.6,7.6,31,0.00,CLR,,0.00,WeatherDisplay:10.37,2013-10-13 19:08:00,
2013-10-13 14:11:00,61.0,30.1,29.18,North,0,8.1,8.1,31,0.00,CLR,,0.00,WeatherDisplay:10.37,2013-10-13 19:11:00,
2013-10-13 14:12:00,61.3,30.4,29.18,NE,45,6.9,6.9,31,0.00,CLR,,0.00,WeatherDisplay:10.37,2013-10-13 19:12:00,
2013-10-13 14:13:00,61.3,30.4,29.18,NE,45,4.6,4.6,31,0.00,CLR,,0.00,WeatherDisplay:10.37,2013-10-13 19:13:00,
2013-10-13 14:16:00,61.7,30.7,29.18,East,90,4.9,4.9,31,0.00,CLR,,0.00,WeatherDisplay:10.37,2013-10-13 19:16:00,
2013-10-13 14:17:00,61.5,30.6,29.18,NNE,22,5.8,5.8,31,0.00,CLR,,0.00,WeatherDisplay:10.37,2013-10-13 19:17:00,
2013-10-13 14:18:00,61.7,32.3,29.18,NNE,22,2.3,2.3,33,0.00,CLR,,0.00,WeatherDisplay:10.37,2013-10-13 19:18:00,
2013-10-13 14:19:00,61.9,32.4,29.18,NE,45,2.3,2.3,33,0.00,CLR,,0.00,WeatherDisplay:10.37,2013-10-13 19:19:00,
2013-10-13 14:21:00,62.1,31.8,29.18,North,0,5.8,5.8,32,0.00,CLR,,0.00,WeatherDisplay:10.37,2013-10-13 19:21:00,
2013-10-13 14:22:00,62.1,32.6,29.18,NW,315,8.1,8.1,33,0.00,CLR,,0.00,WeatherDisplay:10.37,2013-10-13 19:22:00,
2013-10-13 14:24:00,61.7,30.7,29.18,NW,315,6.9,6.9,31,0.00,CLR,,0.00,WeatherDisplay:10.37,2013-10-13 19:24:00,
2013-10-13 14:26:00,61.7,30.7,29.18,WNW,292,3.5,3.5,31,0.00,CLR,,0.00,WeatherDisplay:10.37,2013-10-13 19:26:00,
2013-10-13 14:28:00,61.9,31.7,29.18,NE,45,5.8,5.8,32,0.00,CLR,,0.00,WeatherDisplay:10.37,2013-10-13 19:28:00,
2013-10-13 14:29:00,61.9,31.7,29.18,NE,45,4.6,4.6,32,0.00,CLR,,0.00,WeatherDisplay:10.37,2013-10-13 19:29:00,
2013-10-13 14:31:00,62.8,33.2,29.18,ENE,68,2.3,2.3,33,0.00,CLR,,0.00,WeatherDisplay:10.37,2013-10-13 19:31:00,
2013-10-13 14:33:00,63.0,32.6,29.18,East,90,3.5,3.5,32,0.00,CLR,,0.00,WeatherDisplay:10.37,2013-10-13 19:33:00,
2013-10-13 14:34:00,63.0,32.6,29.18,NNE,22,2.6,2.6,32,0.00,CLR,,0.00,WeatherDisplay:10.37,2013-10-13 19:34:00,
2013-10-13 14:36:00,63.1,32.0,29.18,NW,315,3.5,3.5,31,0.00,CLR,,0.00,WeatherDisplay:10.37,2013-10-13 19:36:00,
2013-10-13 14:38:00,63.1,30.3,29.18,North,0,5.8,5.8,29,0.00,CLR,,0.00,WeatherDisplay:10.37,2013-10-13 19:38:00,
2013-10-13 14:39:00,63.0,30.2,29.18,NW,315,5.8,5.8,29,0.00,CLR,,0.00,WeatherDisplay:10.37,2013-10-13 19:39:00,
2013-10-13 14:40:00,63.0,30.2,29.15,North,0,5.8,5.8,29,0.00,CLR,,0.00,WeatherDisplay:10.37,2013-10-13 19:40:00,
2013-10-13 14:41:00,63.0,30.2,29.15,NNE,22,4.6,4.6,29,0.00,CLR,,0.00,WeatherDisplay:10.37,2013-10-13 19:41:00,
2013-10-13 14:44:00,62.4,29.7,29.15,WNW,292,5.8,5.8,29,0.00,CLR,,0.00,WeatherDisplay:10.37,2013-10-13 19:44:00,
2013-10-13 14:45:00,62.4,29.7,29.15,North,351,5.0,8.0,29,0.00,CLR,,0.00,WeatherDisplay:10.37,2013-10-13 19:45:00,
2013-10-13 14:46:00,61.9,29.2,29.15,North,0,6.9,6.9,29,0.00,CLR,,0.00,WeatherDisplay:10.37,2013-10-13 19:46:00,
2013-10-13 14:49:00,62.6,29.9,29.15,North,0,3.5,3.5,29,0.00,CLR,,0.00,WeatherDisplay:10.37,2013-10-13 19:49:00,
2013-10-13 14:50:00,62.8,30.0,29.15,North,0,3.5,3.5,29,0.00,CLR,,0.00,WeatherDisplay:10.37,2013-10-13 19:50:00,
2013-10-13 14:52:00,63.0,29.3,29.15,North,0,5.8,5.8,28,0.00,CLR,,0.00,WeatherDisplay:10.37,2013-10-13 19:52:00,
2013-10-13 14:54:00,63.0,30.2,29.15,NE,45,3.5,3.5,29,0.00,CLR,,0.00,WeatherDisplay:10.37,2013-10-13 19:54:00,
2013-10-13 14:55:00,63.1,30.3,29.15,NNW,338,3.5,3.5,29,0.00,CLR,,0.00,WeatherDisplay:10.37,2013-10-13 19:55:00,
2013-10-13 14:57:00,63.0,30.2,29.15,North,0,5.8,5.8,29,0.00,CLR,,0.00,WeatherDisplay:10.37,2013-10-13 19:57:00,
2013-10-13 14:59:00,62.8,30.0,29.15,NW,315,4.6,4.6,29,0.00,CLR,,0.00,WeatherDisplay:10.37,2013-10-13 19:59:00,
2013-10-13 15:00:00,63.0,30.2,29.15,WNW,292,4.6,4.6,29,0.00,CLR,,0.00,WeatherDisplay:10.37,2013-10-13 20:00:00,
2013-10-13 15:01:00,63.1,30.3,29.15,West,270,3.5,3.5,29,0.00,CLR,,0.00,WeatherDisplay:10.37,2013-10-13 20:01:00,
2013-10-13 15:02:00,63.1,30.3,29.15,North,0,4.6,4.6,29,0.00,CLR,,0.00,WeatherDisplay:10.37,2013-10-13 20:02:00,
2013-10-13 15:04:00,63.1,29.5,29.15,NE,45,4.6,4.6,28,0.00,CLR,,0.00,WeatherDisplay:10.37,2013-10-13 20:04:00,
2013-10-13 15:05:00,63.3,30.5,29.15,NE,45,4.3,4.3,29,0.00,CLR,,0.00,WeatherDisplay:10.37,2013-10-13 20:05:00,
2013-10-13 15:06:00,63.1,30.3,29.15,NNE,22,4.6,4.6,29,0.00,CLR,,0.00,WeatherDisplay:10.37,2013-10-13 20:06:00,
2013-10-13 15:07:00,63.1,30.3,29.15,NNE,22,3.5,3.5,29,0.00,CLR,,0.00,WeatherDisplay:10.37,2013-10-13 20:07:00,
2013-10-13 15:10:00,63.1,30.3,29.15,NNE,21,2.0,5.0,29,0.00,CLR,,0.00,WeatherDisplay:10.37,2013-10-13 20:10:00,
2013-10-13 15:11:00,63.3,30.5,29.15,West,270,3.5,3.5,29,0.00,CLR,,0.00,WeatherDisplay:10.37,2013-10-13 20:11:00,
2013-10-13 15:12:00,63.3,30.5,29.15,North,0,3.5,3.5,29,0.00,CLR,,0.00,WeatherDisplay:10.37,2013-10-13 20:12:00,
2013-10-13 15:13:00,63.1,29.5,29.15,North,0,6.9,6.9,28,0.00,CLR,,0.00,WeatherDisplay:10.37,2013-10-13 20:13:00,
2013-10-13 15:15:00,63.1,29.4,29.15,North,357,5.0,7.0,28,0.00,CLR,,0.00,WeatherDisplay:10.37,2013-10-13 20:15:00,
2013-10-13 15:16:00,62.8,29.2,29.15,NW,315,4.6,4.6,28,0.00,CLR,,0.00,WeatherDisplay:10.37,2013-10-13 20:16:00,
2013-10-13 15:17:00,62.8,29.2,29.15,WNW,292,3.5,3.5,28,0.00,CLR,,0.00,WeatherDisplay:10.37,2013-10-13 20:17:00,
2013-10-13 15:18:00,63.0,30.2,29.15,SSW,202,3.5,3.5,29,0.00,CLR,,0.00,WeatherDisplay:10.37,2013-10-13 20:18:00,
2013-10-13 15:20:00,63.5,30.6,29.15,NW,315,5.8,5.8,29,0.00,CLR,,0.00,WeatherDisplay:10.37,2013-10-13 20:20:00,
2013-10-13 15:21:00,63.7,30.8,29.15,West,270,5.8,5.8,29,0.00,CLR,,0.00,WeatherDisplay:10.37,2013-10-13 20:21:00,
2013-10-13 15:22:00,63.9,31.0,29.15,South,180,3.5,3.5,29,0.00,CLR,,0.00,WeatherDisplay:10.37,2013-10-13 20:22:00,
2013-10-13 15:23:00,63.9,31.0,29.15,SW,225,1.6,2.0,29,0.00,CLR,,0.00,WeatherDisplay:10.37,2013-10-13 20:23:00,
2013-10-13 15:25:00,64.4,31.4,29.12,NW,315,2.9,2.9,29,0.00,CLR,,0.00,WeatherDisplay:10.37,2013-10-13 20:25:00,
2013-10-13 15:26:00,64.2,30.4,29.12,WNW,292,4.6,4.6,28,0.00,CLR,,0.00,WeatherDisplay:10.37,2013-10-13 20:26:00,
2013-10-13 15:27:00,64.2,30.4,29.12,North,0,4.6,4.6,28,0.00,CLR,,0.00,WeatherDisplay:10.37,2013-10-13 20:27:00,
2013-10-13 15:28:00,64.2,30.4,29.12,NNE,22,4.6,4.6,28,0.00,CLR,,0.00,WeatherDisplay:10.37,2013-10-13 20:28:00,
2013-10-13 15:30:00,64.0,30.2,29.12,NNW,338,5.9,5.9,28,0.00,CLR,,0.00,WeatherDisplay:10.37,2013-10-13 20:30:00,
2013-10-13 15:32:00,63.5,29.8,29.12,North,0,5.8,5.8,28,0.00,CLR,,0.00,WeatherDisplay:10.37,2013-10-13 20:32:00,
2013-10-13 15:33:00,63.5,29.8,29.12,North,0,6.0,6.0,28,0.00,CLR,,0.00,WeatherDisplay:10.37,2013-10-13 20:33:00,
2013-10-13 15:35:00,62.8,28.3,29.12,WNW,292,5.9,5.9,27,0.00,CLR,,0.00,WeatherDisplay:10.37,2013-10-13 20:35:00,
2013-10-13 15:37:00,62.8,28.3,29.12,North,0,8.1,8.1,27,0.00,CLR,,0.00,WeatherDisplay:10.37,2013-10-13 20:37:00,
2013-10-13 15:38:00,62.8,28.3,29.12,North,0,8.1,8.1,27,0.00,CLR,,0.00,WeatherDisplay:10.37,2013-10-13 20:38:00,
2013-10-13 15:40:00,63.1,29.5,29.15,North,0,3.6,3.6,28,0.00,CLR,,0.00,WeatherDisplay:10.37,2013-10-13 20:40:00,
2013-10-13 15:43:00,63.1,29.5,29.15,North,0,4.7,4.7,28,0.00,CLR,,0.00,WeatherDisplay:10.37,2013-10-13 20:43:00,
2013-10-13 15:45:00,63.7,29.9,29.15,NW,315,3.5,3.5,28,0.00,CLR,,0.00,WeatherDisplay:10.37,2013-10-13 20:45:00,
2013-10-13 15:48:00,64.0,30.2,29.15,West,270,2.9,2.9,28,0.00,CLR,,0.00,WeatherDisplay:10.37,2013-10-13 20:48:00,
2013-10-13 15:49:00,64.2,31.3,29.15,SW,225,3.3,3.3,29,0.00,CLR,,0.00,WeatherDisplay:10.37,2013-10-13 20:49:00,
2013-10-13 15:51:00,64.8,30.9,29.15,NW,315,2.3,2.3,28,0.00,CLR,,0.00,WeatherDisplay:10.37,2013-10-13 20:51:00,
2013-10-13 15:53:00,64.8,30.9,29.15,NW,315,3.5,3.5,28,0.00,CLR,,0.00,WeatherDisplay:10.37,2013-10-13 20:53:00,
2013-10-13 15:54:00,64.6,29.8,29.15,WNW,292,5.8,5.8,27,0.00,CLR,,0.00,WeatherDisplay:10.37,2013-10-13 20:54:00,
2013-10-13 15:57:00,63.5,28.9,29.15,NW,315,5.8,5.8,27,0.00,CLR,,0.00,WeatherDisplay:10.37,2013-10-13 20:57:00,
2013-10-13 15:58:00,63.5,28.9,29.15,West,270,4.6,4.6,27,0.00,CLR,,0.00,WeatherDisplay:10.37,2013-10-13 20:58:00,
2013-10-13 15:59:00,63.5,28.9,29.15,WNW,292,4.6,4.6,27,0.00,CLR,,0.00,WeatherDisplay:10.37,2013-10-13 20:59:00,
2013-10-13 16:00:00,63.5,28.9,29.15,NW,310,3.0,6.0,27,0.00,CLR,,0.00,WeatherDisplay:10.37,2013-10-13 21:00:00,
2013-10-13 16:02:00,63.5,28.9,29.15,SW,225,6.9,6.9,27,0.00,CLR,,0.00,WeatherDisplay:10.37,2013-10-13 21:02:00,
2013-10-13 16:03:00,63.5,28.9,29.15,NW,315,3.5,3.5,27,0.00,CLR,,0.00,WeatherDisplay:10.37,2013-10-13 21:03:00,
2013-10-13 16:04:00,63.5,28.9,29.15,SSE,158,3.5,3.5,27,0.00,CLR,,0.00,WeatherDisplay:10.37,2013-10-13 21:04:00,
2013-10-13 16:05:00,63.5,28.9,29.15,West,281,2.0,7.0,27,0.00,CLR,,0.00,WeatherDisplay:10.37,2013-10-13 21:05:00,
2013-10-13 16:07:00,62.8,28.3,29.15,NW,315,5.8,5.8,27,0.00,CLR,,0.00,WeatherDisplay:10.37,2013-10-13 21:07:00,
2013-10-13 16:08:00,62.8,28.3,29.15,NNW,338,6.4,6.4,27,0.00,CLR,,0.00,WeatherDisplay:10.37,2013-10-13 21:08:00,
2013-10-13 16:09:00,62.6,28.1,29.15,West,270,8.1,8.1,27,0.00,CLR,,0.00,WeatherDisplay:10.37,2013-10-13 21:09:00,
2013-10-13 16:10:00,62.6,28.1,29.12,West,270,8.1,8.1,27,0.00,CLR,,0.00,WeatherDisplay:10.37,2013-10-13 21:10:00,
2013-10-13 16:11:00,62.6,28.1,29.12,WNW,292,7.4,7.4,27,0.00,CLR,,0.00,WeatherDisplay:10.37,2013-10-13 21:11:00,
2013-10-13 16:12:00,62.8,28.3,29.12,NW,315,6.9,6.9,27,0.00,CLR,,0.00,WeatherDisplay:10.37,2013-10-13 21:12:00,
2013-10-13 16:13:00,63.0,28.4,29.12,NNW,338,5.8,5.8,27,0.00,CLR,,0.00,WeatherDisplay:10.37,2013-10-13 21:13:00,
2013-10-13 16:15:00,63.0,28.4,29.12,WNW,292,4.6,4.6,27,0.00,CLR,,0.00,WeatherDisplay:10.37,2013-10-13 21:15:00,
2013-10-13 16:16:00,63.0,28.4,29.12,NW,315,4.9,4.9,27,0.00,CLR,,0.00,WeatherDisplay:10.37,2013-10-13 21:16:00,
2013-10-13 16:17:00,63.0,28.4,29.12,NW,315,7.8,7.8,27,0.00,CLR,,0.00,WeatherDisplay:10.37,2013-10-13 21:17:00,
2013-10-13 16:20:00,63.0,28.4,29.12,North,0,4.6,4.6,27,0.00,CLR,,0.00,WeatherDisplay:10.37,2013-10-13 21:20:00,
2013-10-13 16:22:00,62.6,27.2,29.12,West,270,5.8,5.8,26,0.00,CLR,,0.00,WeatherDisplay:10.37,2013-10-13 21:22:00,
2013-10-13 16:25:00,62.4,27.0,29.15,WSW,248,8.1,8.1,26,0.00,CLR,,0.00,WeatherDisplay:10.37,2013-10-13 21:25:00,
2013-10-13 16:26:00,62.4,27.0,29.15,NW,315,8.1,8.1,26,0.00,CLR,,0.00,WeatherDisplay:10.37,2013-10-13 21:26:00,
2013-10-13 16:27:00,62.1,26.7,29.15,WNW,292,8.1,8.1,26,0.00,CLR,,0.00,WeatherDisplay:10.37,2013-10-13 21:27:00,
2013-10-13 16:28:00,62.1,26.7,29.15,NW,315,5.8,5.8,26,0.00,CLR,,0.00,WeatherDisplay:10.37,2013-10-13 21:28:00,
2013-10-13 16:30:00,62.1,26.7,29.15,North,0,8.1,8.1,26,0.00,CLR,,0.00,WeatherDisplay:10.37,2013-10-13 21:30:00,
2013-10-13 16:31:00,62.1,26.7,29.15,NW,315,4.7,4.7,26,0.00,CLR,,0.00,WeatherDisplay:10.37,2013-10-13 21:31:00,
2013-10-13 16:32:00,62.1,26.7,29.15,West,270,4.6,4.6,26,0.00,CLR,,0.00,WeatherDisplay:10.37,2013-10-13 21:32:00,
2013-10-13 16:33:00,62.1,26.7,29.15,NW,315,4.6,4.6,26,0.00,CLR,,0.00,WeatherDisplay:10.37,2013-10-13 21:33:00,
2013-10-13 16:35:00,62.1,26.7,29.15,West,270,4.6,4.6,26,0.00,CLR,,0.00,WeatherDisplay:10.37,2013-10-13 21:35:00,
2013-10-13 16:36:00,62.1,26.7,29.15,West,270,3.5,3.5,26,0.00,CLR,,0.00,WeatherDisplay:10.37,2013-10-13 21:36:00,
2013-10-13 16:37:00,62.1,26.7,29.15,WNW,292,3.5,3.5,26,0.00,CLR,,0.00,WeatherDisplay:10.37,2013-10-13 21:37:00,
2013-10-13 16:39:00,62.1,26.7,29.15,North,0,3.5,3.5,26,0.00,CLR,,0.00,WeatherDisplay:10.37,2013-10-13 21:39:00,
2013-10-13 16:41:00,62.6,27.2,29.15,NW,315,4.6,4.6,26,0.00,CLR,,0.00,WeatherDisplay:10.37,2013-10-13 21:41:00,
2013-10-13 16:42:00,62.6,27.2,29.15,North,0,3.5,3.5,26,0.00,CLR,,0.00,WeatherDisplay:10.37,2013-10-13 21:42:00,
2013-10-13 16:44:00,62.6,27.2,29.15,NE,45,6.0,6.0,26,0.00,CLR,,0.00,WeatherDisplay:10.37,2013-10-13 21:44:00,
2013-10-13 16:46:00,62.2,27.8,29.15,NW,315,6.9,6.9,27,0.00,CLR,,0.00,WeatherDisplay:10.37,2013-10-13 21:46:00,
2013-10-13 16:47:00,62.2,27.8,29.15,North,0,5.8,5.8,27,0.00,CLR,,0.00,WeatherDisplay:10.37,2013-10-13 21:47:00,
2013-10-13 16:49:00,62.1,27.7,29.15,NNW,338,4.9,4.9,27,0.00,CLR,,0.00,WeatherDisplay:10.37,2013-10-13 21:49:00,
2013-10-13 16:51:00,62.1,27.7,29.15,NNE,22,4.6,4.6,27,0.00,CLR,,0.00,WeatherDisplay:10.37,2013-10-13 21:51:00,
2013-10-13 16:52:00,61.9,27.5,29.15,NW,315,4.6,4.6,27,0.00,CLR,,0.00,WeatherDisplay:10.37,2013-10-13 21:52:00,
2013-10-13 16:54:00,62.1,27.7,29.15,North,0,3.5,3.5,27,0.00,CLR,,0.00,WeatherDisplay:10.37,2013-10-13 21:54:00,
2013-10-13 16:55:00,62.2,27.8,29.15,NW,315,3.5,3.5,27,0.00,CLR,,0.00,WeatherDisplay:10.37,2013-10-13 21:55:00,
2013-10-13 16:56:00,62.2,27.8,29.15,WNW,292,4.7,4.7,27,0.00,CLR,,0.00,WeatherDisplay:10.37,2013-10-13 21:56:00,
2013-10-13 16:57:00,62.4,28.0,29.15,WNW,292,4.6,4.6,27,0.00,CLR,,0.00,WeatherDisplay:10.37,2013-10-13 21:57:00,
2013-10-13 16:59:00,62.4,28.0,29.15,NW,315,4.3,4.3,27,0.00,CLR,,0.00,WeatherDisplay:10.37,2013-10-13 21:59:00,
2013-10-13 17:01:00,62.2,27.8,29.15,North,0,5.9,5.9,27,0.00,CLR,,0.00,WeatherDisplay:10.37,2013-10-13 22:01:00,
2013-10-13 17:02:00,62.1,27.7,29.15,NW,315,5.8,5.8,27,0.00,CLR,,0.00,WeatherDisplay:10.37,2013-10-13 22:02:00,
2013-10-13 17:03:00,62.1,27.7,29.15,NNW,338,5.8,5.8,27,0.00,CLR,,0.00,WeatherDisplay:10.37,2013-10-13 22:03:00,
2013-10-13 17:05:00,62.1,27.7,29.15,NW,315,2.3,2.3,27,0.00,CLR,,0.00,WeatherDisplay:10.37,2013-10-13 22:05:00,
2013-10-13 17:06:00,62.1,27.7,29.15,West,270,5.8,5.8,27,0.00,CLR,,0.00,WeatherDisplay:10.37,2013-10-13 22:06:00,
2013-10-13 17:07:00,62.2,27.8,29.15,West,270,5.8,5.8,27,0.00,CLR,,0.00,WeatherDisplay:10.37,2013-10-13 22:07:00,
2013-10-13 17:08:00,62.1,27.7,29.15,NNW,338,3.5,3.5,27,0.00,CLR,,0.00,WeatherDisplay:10.37,2013-10-13 22:08:00,
2013-10-13 17:10:00,62.1,27.7,29.15,NW,315,4.6,4.6,27,0.00,CLR,,0.00,WeatherDisplay:10.37,2013-10-13 22:10:00,
2013-10-13 17:11:00,61.9,27.5,29.15,NNW,338,5.8,5.8,27,0.00,CLR,,0.00,WeatherDisplay:10.37,2013-10-13 22:11:00,
2013-10-13 17:12:00,61.9,27.5,29.15,West,270,4.6,4.6,27,0.00,CLR,,0.00,WeatherDisplay:10.37,2013-10-13 22:12:00,
2013-10-13 17:13:00,61.9,27.5,29.15,WNW,292,6.0,6.0,27,0.00,CLR,,0.00,WeatherDisplay:10.37,2013-10-13 22:13:00,
2013-10-13 17:15:00,61.5,27.2,29.15,NW,315,4.6,4.6,27,0.00,CLR,,0.00,WeatherDisplay:10.37,2013-10-13 22:15:00,
2013-10-13 17:17:00,61.5,27.2,29.15,NW,315,3.5,3.5,27,0.00,CLR,,0.00,WeatherDisplay:10.37,2013-10-13 22:17:00,
2013-10-13 17:18:00,61.5,27.2,29.15,NW,315,3.5,3.5,27,0.00,CLR,,0.00,WeatherDisplay:10.37,2013-10-13 22:18:00,
2013-10-13 17:20:00,61.2,26.9,29.15,NNW,338,4.6,4.6,27,0.00,CLR,,0.00,WeatherDisplay:10.37,2013-10-13 22:20:00,
2013-10-13 17:22:00,61.0,26.7,29.15,NW,315,3.8,3.8,27,0.00,CLR,,0.00,WeatherDisplay:10.37,2013-10-13 22:22:00,
2013-10-13 17:23:00,61.0,26.7,29.15,NW,315,3.5,3.5,27,0.00,CLR,,0.00,WeatherDisplay:10.37,2013-10-13 22:23:00,
2013-10-13 17:25:00,60.6,27.3,29.15,NW,315,4.6,4.6,28,0.00,CLR,,0.00,WeatherDisplay:10.37,2013-10-13 22:25:00,
2013-10-13 17:27:00,60.4,27.1,29.15,NNW,338,2.4,2.4,28,0.00,CLR,,0.00,WeatherDisplay:10.37,2013-10-13 22:27:00,
2013-10-13 17:28:00,60.1,26.8,29.15,WNW,292,2.3,2.3,28,0.00,CLR,,0.00,WeatherDisplay:10.37,2013-10-13 22:28:00,
2013-10-13 17:29:00,59.9,26.7,29.15,NW,315,2.3,2.3,28,0.00,CLR,,0.00,WeatherDisplay:10.37,2013-10-13 22:29:00,
2013-10-13 17:31:00,59.5,26.4,29.15,NNW,338,3.5,3.5,28,0.00,CLR,,0.00,WeatherDisplay:10.37,2013-10-13 22:31:00,
2013-10-13 17:32:00,59.2,26.1,29.15,NW,315,2.3,2.4,28,0.00,CLR,,0.00,WeatherDisplay:10.37,2013-10-13 22:32:00,
2013-10-13 17:33:00,59.0,25.9,29.15,NW,315,2.9,2.9,28,0.00,CLR,,0.00,WeatherDisplay:10.37,2013-10-13 22:33:00,
2013-10-13 17:34:00,59.0,25.9,29.15,NNW,338,3.5,3.5,28,0.00,CLR,,0.00,WeatherDisplay:10.37,2013-10-13 22:34:00,
2013-10-13 17:36:00,58.8,26.6,29.15,North,0,4.6,4.6,29,0.00,CLR,,0.00,WeatherDisplay:10.37,2013-10-13 22:36:00,
2013-10-13 17:38:00,58.6,26.4,29.15,NNW,338,4.6,4.6,29,0.00,CLR,,0.00,WeatherDisplay:10.37,2013-10-13 22:38:00,
2013-10-13 17:39:00,58.5,26.3,29.15,WNW,292,4.7,4.7,29,0.00,CLR,,0.00,WeatherDisplay:10.37,2013-10-13 22:39:00,
2013-10-13 17:40:00,58.5,26.3,29.15,North,0,4.6,4.6,29,0.00,CLR,,0.00,WeatherDisplay:10.37,2013-10-13 22:40:00,
2013-10-13 17:41:00,58.3,26.1,29.15,NNW,338,3.5,3.5,29,0.00,CLR,,0.00,WeatherDisplay:10.37,2013-10-13 22:41:00,
2013-10-13 17:43:00,57.9,25.8,29.15,NW,315,3.5,3.5,29,0.00,CLR,,0.00,WeatherDisplay:10.37,2013-10-13 22:43:00,
2013-10-13 17:44:00,57.9,25.8,29.15,NW,315,3.5,3.5,29,0.00,CLR,,0.00,WeatherDisplay:10.37,2013-10-13 22:44:00,
2013-10-13 17:45:00,57.7,25.7,29.15,NW,315,3.5,3.5,29,0.00,CLR,,0.00,WeatherDisplay:10.37,2013-10-13 22:45:00,
2013-10-13 17:46:00,57.6,25.5,29.15,WNW,292,2.4,2.4,29,0.00,CLR,,0.00,WeatherDisplay:10.37,2013-10-13 22:46:00,
2013-10-13 17:49:00,57.2,25.2,29.15,NNW,338,2.3,2.3,29,0.00,CLR,,0.00,WeatherDisplay:10.37,2013-10-13 22:49:00,
2013-10-13 17:50:00,57.0,25.9,29.15,NW,315,2.4,2.4,30,0.00,CLR,,0.00,WeatherDisplay:10.37,2013-10-13 22:50:00,
2013-10-13 17:51:00,56.8,25.7,29.15,WNW,292,2.3,2.3,30,0.00,CLR,,0.00,WeatherDisplay:10.37,2013-10-13 22:51:00,
2013-10-13 17:54:00,56.5,25.4,29.15,NW,315,2.3,2.3,30,0.00,CLR,,0.00,WeatherDisplay:10.37,2013-10-13 22:54:00,
2013-10-13 17:55:00,56.5,25.4,29.15,NW,315,2.3,2.3,30,0.00,CLR,,0.00,WeatherDisplay:10.37,2013-10-13 22:55:00,
2013-10-13 17:57:00,56.3,26.0,29.15,West,270,2.3,2.3,31,0.00,CLR,,0.00,WeatherDisplay:10.37,2013-10-13 22:57:00,
2013-10-13 17:59:00,55.9,25.7,29.15,West,270,1.2,1.2,31,0.00,CLR,,0.00,WeatherDisplay:10.37,2013-10-13 22:59:00,
2013-10-13 18:00:00,55.8,25.5,29.15,WNW,292,1.6,1.6,31,0.00,CLR,,0.00,WeatherDisplay:10.37,2013-10-13 23:00:00,
2013-10-13 18:01:00,55.6,26.2,29.15,WNW,292,1.2,0.0,32,0.00,CLR,,0.00,WeatherDisplay:10.37,2013-10-13 23:01:00,
2013-10-13 18:02:00,55.6,26.2,29.15,WNW,292,0.0,0.0,32,0.00,CLR,,0.00,WeatherDisplay:10.37,2013-10-13 23:02:00,
2013-10-13 18:04:00,55.0,26.4,29.15,WNW,292,0.0,0.0,33,0.00,CLR,,0.00,WeatherDisplay:10.37,2013-10-13 23:04:00,
2013-10-13 18:05:00,55.0,26.4,29.15,West,270,0.0,0.0,33,0.00,CLR,,0.00,WeatherDisplay:10.37,2013-10-13 23:05:00,
2013-10-13 18:07:00,54.7,26.1,29.15,NW,315,2.3,2.3,33,0.00,CLR,,0.00,WeatherDisplay:10.37,2013-10-13 23:07:00,
2013-10-13 18:09:00,54.5,26.7,29.15,NW,315,1.2,1.2,34,0.00,CLR,,0.00,WeatherDisplay:10.37,2013-10-13 23:09:00,
2013-10-13 18:10:00,54.3,26.5,29.18,NW,315,1.2,1.2,34,0.00,CLR,,0.00,WeatherDisplay:10.37,2013-10-13 23:10:00,
2013-10-13 18:12:00,54.0,26.9,29.18,NW,315,0.0,0.0,35,0.00,CLR,,0.00,WeatherDisplay:10.37,2013-10-13 23:12:00,
2013-10-13 18:14:00,53.6,27.3,29.18,West,270,0.9,0.0,36,0.00,CLR,,0.00,WeatherDisplay:10.37,2013-10-13 23:14:00,
2013-10-13 18:15:00,53.4,27.1,29.18,West,270,1.2,0.0,36,0.00,CLR,,0.00,WeatherDisplay:10.37,2013-10-13 23:15:00,
2013-10-13 18:16:00,53.2,26.9,29.18,West,270,1.2,0.0,36,0.00,CLR,,0.00,WeatherDisplay:10.37,2013-10-13 23:16:00,
2013-10-13 18:18:00,52.9,26.6,29.18,West,270,0.0,0.0,36,0.00,CLR,,0.00,WeatherDisplay:10.37,2013-10-13 23:18:00,
2013-10-13 18:19:00,52.5,27.0,29.18,West,270,0.0,0.0,37,0.00,CLR,,0.00,WeatherDisplay:10.37,2013-10-13 23:19:00,
2013-10-13 18:20:00,52.3,26.8,29.18,West,270,0.0,0.0,37,0.00,CLR,,0.00,WeatherDisplay:10.37,2013-10-13 23:20:00,
2013-10-13 18:22:00,51.8,27.0,29.18,West,270,0.0,0.0,38,0.00,CLR,,0.00,WeatherDisplay:10.37,2013-10-13 23:22:00,
2013-10-13 18:23:00,51.8,27.0,29.18,West,270,1.2,1.2,38,0.00,CLR,,0.00,WeatherDisplay:10.37,2013-10-13 23:23:00,
2013-10-13 18:25:00,51.4,27.3,29.18,West,270,0.0,0.0,39,0.00,CLR,,0.00,WeatherDisplay:10.37,2013-10-13 23:25:00,
2013-10-13 18:26:00,51.3,27.1,29.18,West,270,0.0,0.0,39,0.00,CLR,,0.00,WeatherDisplay:10.37,2013-10-13 23:26:00,
2013-10-13 18:27:00,51.1,27.0,29.18,WNW,292,0.0,0.0,39,0.00,CLR,,0.00,WeatherDisplay:10.37,2013-10-13 23:27:00,
2013-10-13 18:29:00,50.7,26.6,29.18,WNW,292,0.0,0.0,39,0.00,CLR,,0.00,WeatherDisplay:10.37,2013-10-13 23:29:00,
2013-10-13 18:30:00,50.4,26.9,29.18,WSW,248,1.2,1.2,40,0.00,CLR,,0.00,WeatherDisplay:10.37,2013-10-13 23:30:00,
2013-10-13 18:31:00,50.4,26.9,29.18,WSW,248,1.2,1.2,40,0.00,CLR,,0.00,WeatherDisplay:10.37,2013-10-13 23:31:00,
2013-10-13 18:32:00,50.2,26.8,29.18,NW,315,0.0,0.0,40,0.00,CLR,,0.00,WeatherDisplay:10.37,2013-10-13 23:32:00,
2013-10-13 18:34:00,49.6,30.2,29.18,NW,315,2.3,0.0,47,0.00,CLR,,0.00,WeatherDisplay:10.37,2013-10-13 23:34:00,
2013-10-13 18:35:00,49.3,29.4,29.18,WNW,292,2.9,2.9,46,0.00,CLR,,0.00,WeatherDisplay:10.37,2013-10-13 23:35:00,
2013-10-13 18:36:00,49.1,28.1,29.18,WNW,292,2.3,2.3,44,0.00,CLR,,0.00,WeatherDisplay:10.37,2013-10-13 23:36:00,
2013-10-13 18:37:00,49.1,28.1,29.18,WNW,292,1.6,1.6,44,0.00,CLR,,0.00,WeatherDisplay:10.37,2013-10-13 23:37:00,
2013-10-13 18:39:00,48.7,27.8,29.18,WNW,292,2.3,2.3,44,0.00,CLR,,0.00,WeatherDisplay:10.37,2013-10-13 23:39:00,
2013-10-13 18:40:00,48.7,27.8,29.18,WNW,292,2.4,2.4,44,0.00,CLR,,0.00,WeatherDisplay:10.37,2013-10-13 23:40:00,
2013-10-13 18:41:00,48.7,27.8,29.18,WNW,292,2.3,2.3,44,0.00,CLR,,0.00,WeatherDisplay:10.37,2013-10-13 23:41:00,
2013-10-13 18:42:00,48.6,28.7,29.18,West,270,3.5,3.5,46,0.00,CLR,,0.00,WeatherDisplay:10.37,2013-10-13 23:42:00,
2013-10-13 18:44:00,48.6,29.2,29.18,WNW,292,2.9,2.9,47,0.00,CLR,,0.00,WeatherDisplay:10.37,2013-10-13 23:44:00,
2013-10-13 18:45:00,48.6,29.2,29.18,WNW,292,2.9,2.9,47,0.00,CLR,,0.00,WeatherDisplay:10.37,2013-10-13 23:45:00,
2013-10-13 18:46:00,48.4,29.6,29.18,West,270,3.5,3.5,48,0.00,CLR,,0.00,WeatherDisplay:10.37,2013-10-13 23:46:00,
2013-10-13 18:47:00,48.4,30.6,29.18,West,270,3.8,3.8,50,0.00,CLR,,0.00,WeatherDisplay:10.37,2013-10-13 23:47:00,
2013-10-13 18:48:00,48.4,30.6,29.18,West,270,3.5,3.5,50,0.00,CLR,,0.00,WeatherDisplay:10.37,2013-10-13 23:48:00,
2013-10-13 18:49:00,48.4,31.1,29.18,West,270,3.5,3.5,51,0.00,CLR,,0.00,WeatherDisplay:10.37,2013-10-13 23:49:00,
2013-10-13 18:50:00,48.4,31.1,29.18,West,270,3.5,3.5,51,0.00,CLR,,0.00,WeatherDisplay:10.37,2013-10-13 23:50:00,
2013-10-13 18:51:00,48.2,30.4,29.18,West,270,2.6,2.6,50,0.00,CLR,,0.00,WeatherDisplay:10.37,2013-10-13 23:51:00,
2013-10-13 18:53:00,48.2,30.4,29.18,West,270,2.3,2.3,50,0.00,CLR,,0.00,WeatherDisplay:10.37,2013-10-13 23:53:00,
2013-10-13 18:55:00,48.0,30.2,29.18,West,270,2.9,2.9,50,0.00,CLR,,0.00,WeatherDisplay:10.37,2013-10-13 23:55:00,
2013-10-13 18:56:00,48.0,30.2,29.18,West,270,2.4,2.4,50,0.00,CLR,,0.00,WeatherDisplay:10.37,2013-10-13 23:56:00,
2013-10-13 18:58:00,47.7,29.9,29.18,West,270,1.6,1.6,50,0.00,CLR,,0.00,WeatherDisplay:10.37,2013-10-13 23:58:00,
2013-10-13 18:59:00,47.7,30.4,29.18,WNW,292,2.3,2.3,51,0.00,CLR,,0.00,WeatherDisplay:10.37,2013-10-13 23:59:00,
2013-10-13 19:00:00,47.5,30.2,29.18,West,270,2.0,2.0,51,0.00,CLR,,0.00,WeatherDisplay:10.37,2013-10-14 00:00:00,
2013-10-13 19:01:00,47.3,30.1,29.18,West,270,2.3,2.3,51,0.00,CLR,,0.00,WeatherDisplay:10.37,2013-10-14 00:01:00,
2013-10-13 19:03:00,46.9,29.7,29.18,WNW,292,2.3,0.0,51,0.00,CLR,,0.00,WeatherDisplay:10.37,2013-10-14 00:03:00,
2013-10-13 19:04:00,46.9,29.7,29.18,WNW,292,1.4,1.4,51,0.00,CLR,,0.00,WeatherDisplay:10.37,2013-10-14 00:04:00,
2013-10-13 19:05:00,46.8,29.6,29.18,WNW,292,2.4,2.4,51,0.00,CLR,,0.00,WeatherDisplay:10.37,2013-10-14 00:05:00,
2013-10-13 19:06:00,46.8,29.6,29.18,WNW,292,1.2,1.6,51,0.00,CLR,,0.00,WeatherDisplay:10.37,2013-10-14 00:06:00,
2013-10-13 19:07:00,46.6,29.4,29.18,WNW,292,2.3,2.3,51,0.00,CLR,,0.00,WeatherDisplay:10.37,2013-10-14 00:07:00,
2013-10-13 19:08:00,46.2,30.0,29.18,WNW,292,1.2,1.2,53,0.00,CLR,,0.00,WeatherDisplay:10.37,2013-10-14 00:08:00,
2013-10-13 19:09:00,46.2,30.0,29.18,WNW,292,1.2,0.0,53,0.00,CLR,,0.00,WeatherDisplay:10.37,2013-10-14 00:09:00,
2013-10-13 19:10:00,46.0,29.8,29.20,WNW,292,0.0,0.0,53,0.00,CLR,,0.00,WeatherDisplay:10.37,2013-10-14 00:10:00,
2013-10-13 19:11:00,46.0,29.8,29.20,WNW,292,0.0,0.0,53,0.00,CLR,,0.00,WeatherDisplay:10.37,2013-10-14 00:11:00,
2013-10-13 19:12:00,45.9,29.7,29.20,WNW,292,0.0,0.0,53,0.00,CLR,,0.00,WeatherDisplay:10.37,2013-10-14 00:12:00,
2013-10-13 19:14:00,45.5,28.9,29.20,WNW,292,0.0,0.0,52,0.00,CLR,,0.00,WeatherDisplay:10.37,2013-10-14 00:14:00,
2013-10-13 19:15:00,45.3,29.2,29.20,WNW,292,0.0,0.0,53,0.00,CLR,,0.00,WeatherDisplay:10.37,2013-10-14 00:15:00,
2013-10-13 19:16:00,45.1,29.5,29.20,WNW,292,0.0,0.0,54,0.00,CLR,,0.00,WeatherDisplay:10.37,2013-10-14 00:16:00,
2013-10-13 19:17:00,44.8,29.6,29.20,WNW,292,1.2,0.0,55,0.00,CLR,,0.00,WeatherDisplay:10.37,2013-10-14 00:17:00,
2013-10-13 19:18:00,44.8,29.6,29.20,WNW,292,0.0,0.0,55,0.00,CLR,,0.00,WeatherDisplay:10.37,2013-10-14 00:18:00,
2013-10-13 19:19:00,44.6,29.0,29.20,WNW,292,0.9,0.0,54,0.00,CLR,,0.00,WeatherDisplay:10.37,2013-10-14 00:19:00,
2013-10-13 19:20:00,44.4,29.2,29.20,WNW,292,1.4,1.4,55,0.00,CLR,,0.00,WeatherDisplay:10.37,2013-10-14 00:20:00,
2013-10-13 19:21:00,44.4,29.2,29.20,WNW,292,1.2,1.2,55,0.00,CLR,,0.00,WeatherDisplay:10.37,2013-10-14 00:21:00,
2013-10-13 19:22:00,44.2,29.5,29.20,WNW,292,0.0,0.0,56,0.00,CLR,,0.00,WeatherDisplay:10.37,2013-10-14 00:22:00,
2013-10-13 19:23:00,44.1,29.4,29.20,WNW,292,0.0,0.0,56,0.00,CLR,,0.00,WeatherDisplay:10.37,2013-10-14 00:23:00,
2013-10-13 19:24:00,43.9,28.7,29.18,WNW,292,1.2,1.2,55,0.00,CLR,,0.00,WeatherDisplay:10.37,2013-10-14 00:24:00,
2013-10-13 19:25:00,43.9,28.7,29.18,WNW,292,1.2,1.2,55,0.00,CLR,,0.00,WeatherDisplay:10.37,2013-10-14 00:25:00,
2013-10-13 19:26:00,43.7,29.0,29.18,WNW,292,1.6,1.6,56,0.00,CLR,,0.00,WeatherDisplay:10.37,2013-10-14 00:26:00,
2013-10-13 19:28:00,43.5,28.4,29.18,NW,315,2.0,2.0,55,0.00,CLR,,0.00,WeatherDisplay:10.37,2013-10-14 00:28:00,
2013-10-13 19:29:00,43.5,28.4,29.18,NW,315,2.3,2.3,55,0.00,CLR,,0.00,WeatherDisplay:10.37,2013-10-14 00:29:00,
2013-10-13 19:30:00,43.5,28.4,29.18,WNW,302,1.0,2.0,55,0.00,CLR,,0.00,WeatherDisplay:10.37,2013-10-14 00:30:00,
2013-10-13 19:31:00,43.3,28.7,29.18,NW,315,2.3,2.3,56,0.00,CLR,,0.00,WeatherDisplay:10.37,2013-10-14 00:31:00,
2013-10-13 19:33:00,43.0,28.8,29.18,WNW,292,1.6,1.6,57,0.00,CLR,,0.00,WeatherDisplay:10.37,2013-10-14 00:33:00,
2013-10-13 19:35:00,43.0,28.8,29.18,WNW,292,2.3,2.3,57,0.00,CLR,,0.00,WeatherDisplay:10.37,2013-10-14 00:35:00,
2013-10-13 19:36:00,42.8,29.0,29.18,WNW,292,1.6,1.6,58,0.00,CLR,,0.00,WeatherDisplay:10.37,2013-10-14 00:36:00,
2013-10-13 19:38:00,42.6,29.7,29.18,WNW,292,1.2,1.2,60,0.00,CLR,,0.00,WeatherDisplay:10.37,2013-10-14 00:38:00,
2013-10-13 19:40:00,42.4,29.5,29.20,WNW,292,1.2,0.0,60,0.00,CLR,,0.00,WeatherDisplay:10.37,2013-10-14 00:40:00,
2013-10-13 19:41:00,42.4,29.9,29.20,WNW,292,0.0,0.0,61,0.00,CLR,,0.00,WeatherDisplay:10.37,2013-10-14 00:41:00,
2013-10-13 19:44:00,42.1,29.2,29.20,WNW,292,0.0,0.0,60,0.00,CLR,,0.00,WeatherDisplay:10.37,2013-10-14 00:44:00,
2013-10-13 19:45:00,42.1,29.2,29.20,WNW,292,1.2,0.0,60,0.00,CLR,,0.00,WeatherDisplay:10.37,2013-10-14 00:45:00,
2013-10-13 19:46:00,41.9,29.0,29.20,WNW,292,1.2,0.0,60,0.00,CLR,,0.00,WeatherDisplay:10.37,2013-10-14 00:46:00,
2013-10-13 19:47:00,41.9,29.0,29.20,WNW,292,1.6,1.6,60,0.00,CLR,,0.00,WeatherDisplay:10.37,2013-10-14 00:47:00,
2013-10-13 19:48:00,41.7,29.3,29.20,NW,315,2.3,2.3,61,0.00,CLR,,0.00,WeatherDisplay:10.37,2013-10-14 00:48:00,
2013-10-13 19:49:00,41.7,29.3,29.20,NW,315,1.2,0.0,61,0.00,CLR,,0.00,WeatherDisplay:10.37,2013-10-14 00:49:00,
2013-10-13 19:50:00,41.7,29.6,29.20,NW,315,1.2,0.0,62,0.00,CLR,,0.00,WeatherDisplay:10.37,2013-10-14 00:50:00,
2013-10-13 19:51:00,41.7,29.6,29.20,NW,315,1.2,0.0,62,0.00,CLR,,0.00,WeatherDisplay:10.37,2013-10-14 00:51:00,
2013-10-13 19:52:00,41.5,29.1,29.20,NW,315,2.0,2.0,61,0.00,CLR,,0.00,WeatherDisplay:10.37,2013-10-14 00:52:00,
2013-10-13 19:53:00,41.5,29.5,29.20,NW,315,2.3,2.3,62,0.00,CLR,,0.00,WeatherDisplay:10.37,2013-10-14 00:53:00,
2013-10-13 19:54:00,41.5,29.9,29.20,NW,315,2.3,2.3,63,0.00,CLR,,0.00,WeatherDisplay:10.37,2013-10-14 00:54:00,
2013-10-13 19:56:00,41.5,29.9,29.20,NW,315,1.4,1.4,63,0.00,CLR,,0.00,WeatherDisplay:10.37,2013-10-14 00:56:00,
2013-10-13 19:57:00,41.2,29.9,29.20,NW,315,1.6,1.6,64,0.00,CLR,,0.00,WeatherDisplay:10.37,2013-10-14 00:57:00,
2013-10-13 19:58:00,41.2,29.9,29.20,NW,315,1.6,1.6,64,0.00,CLR,,0.00,WeatherDisplay:10.37,2013-10-14 00:58:00,
2013-10-13 19:59:00,41.2,29.9,29.20,NW,315,1.4,1.4,64,0.00,CLR,,0.00,WeatherDisplay:10.37,2013-10-14 00:59:00,
2013-10-13 20:01:00,41.0,30.1,29.20,NW,315,1.2,0.0,65,0.00,CLR,,0.00,WeatherDisplay:10.37,2013-10-14 01:01:00,
2013-10-13 20:02:00,41.0,30.1,29.20,NW,315,1.2,0.0,65,0.00,CLR,,0.00,WeatherDisplay:10.37,2013-10-14 01:02:00,
2013-10-13 20:03:00,40.8,30.3,29.20,NW,315,0.0,0.0,66,0.00,CLR,,0.00,WeatherDisplay:10.37,2013-10-14 01:03:00,
2013-10-13 20:04:00,40.8,30.3,29.20,NW,315,0.0,0.0,66,0.00,CLR,,0.00,WeatherDisplay:10.37,2013-10-14 01:04:00,
2013-10-13 20:06:00,40.6,30.2,29.20,NW,315,1.6,1.6,66,0.00,CLR,,0.00,WeatherDisplay:10.37,2013-10-14 01:06:00,
2013-10-13 20:07:00,40.6,30.2,29.20,NW,315,1.4,1.4,66,0.00,CLR,,0.00,WeatherDisplay:10.37,2013-10-14 01:07:00,
2013-10-13 20:08:00,40.6,30.2,29.20,NW,315,1.6,1.6,66,0.00,CLR,,0.00,WeatherDisplay:10.37,2013-10-14 01:08:00,
2013-10-13 20:09:00,40.6,30.5,29.20,NW,315,1.4,1.4,67,0.00,CLR,,0.00,WeatherDisplay:10.37,2013-10-14 01:09:00,
2013-10-13 20:10:00,40.5,30.4,29.20,NW,315,1.2,1.4,67,0.00,CLR,,0.00,WeatherDisplay:10.37,2013-10-14 01:10:00,
2013-10-13 20:12:00,40.5,30.7,29.20,NW,315,0.0,0.0,68,0.00,CLR,,0.00,WeatherDisplay:10.37,2013-10-14 01:12:00,
2013-10-13 20:13:00,40.3,29.8,29.20,NW,315,0.0,0.0,66,0.00,CLR,,0.00,WeatherDisplay:10.37,2013-10-14 01:13:00,
2013-10-13 20:14:00,40.3,29.8,29.20,NW,315,1.2,1.2,66,0.00,CLR,,0.00,WeatherDisplay:10.37,2013-10-14 01:14:00,
2013-10-13 20:15:00,40.3,29.8,29.20,NW,315,1.6,1.6,66,0.00,CLR,,0.00,WeatherDisplay:10.37,2013-10-14 01:15:00,
2013-10-13 20:18:00,40.1,30.0,29.20,NW,315,2.3,2.3,67,0.00,CLR,,0.00,WeatherDisplay:10.37,2013-10-14 01:18:00,
2013-10-13 20:19:00,39.9,30.2,29.20,NW,315,1.2,1.2,68,0.00,CLR,,0.00,WeatherDisplay:10.37,2013-10-14 01:19:00,
2013-10-13 20:20:00,39.9,30.2,29.20,NW,315,1.2,0.0,68,0.00,CLR,,0.00,WeatherDisplay:10.37,2013-10-14 01:20:00,
2013-10-13 20:23:00,39.7,30.4,29.20,NW,315,0.0,0.0,69,0.00,CLR,,0.00,WeatherDisplay:10.37,2013-10-14 01:23:00,
2013-10-13 20:24:00,39.7,30.4,29.20,NW,315,0.0,0.0,69,0.00,CLR,,0.00,WeatherDisplay:10.37,2013-10-14 01:24:00,
2013-10-13 20:25:00,39.6,29.9,29.20,NW,315,0.0,0.0,68,0.00,CLR,,0.00,WeatherDisplay:10.37,2013-10-14 01:25:00,
2013-10-13 20:28:00,39.6,29.9,29.20,NW,315,2.3,2.3,68,0.00,CLR,,0.00,WeatherDisplay:10.37,2013-10-14 01:28:00,
2013-10-13 20:29:00,39.6,29.9,29.20,NW,315,2.3,2.3,68,0.00,CLR,,0.00,WeatherDisplay:10.37,2013-10-14 01:29:00,
2013-10-13 20:30:00,39.4,30.1,29.20,NW,315,2.3,2.3,69,0.00,CLR,,0.00,WeatherDisplay:10.37,2013-10-14 01:30:00,
2013-10-13 20:33:00,39.4,30.4,29.20,NW,315,1.4,1.4,70,0.00,CLR,,0.00,WeatherDisplay:10.37,2013-10-14 01:33:00,
2013-10-13 20:34:00,39.4,30.4,29.20,NW,315,2.3,2.3,70,0.00,CLR,,0.00,WeatherDisplay:10.37,2013-10-14 01:34:00,
2013-10-13 20:35:00,39.2,30.2,29.20,NW,315,1.2,0.0,70,0.00,CLR,,0.00,WeatherDisplay:10.37,2013-10-14 01:35:00,
2013-10-13 20:36:00,39.2,30.2,29.20,NW,315,1.2,0.0,70,0.00,CLR,,0.00,WeatherDisplay:10.37,2013-10-14 01:36:00,
2013-10-13 20:38:00,39.2,30.9,29.20,NW,315,0.0,0.0,72,0.00,CLR,,0.00,WeatherDisplay:10.37,2013-10-14 01:38:00,
2013-10-13 20:39:00,39.2,30.9,29.20,NW,315,0.0,0.0,72,0.00,CLR,,0.00,WeatherDisplay:10.37,2013-10-14 01:39:00,
2013-10-13 20:40:00,39.2,30.9,29.20,NW,315,0.0,0.0,72,0.00,CLR,,0.00,WeatherDisplay:10.37,2013-10-14 01:40:00,
2013-10-13 20:41:00,39.0,30.8,29.20,NW,315,0.0,0.0,72,0.00,CLR,,0.00,WeatherDisplay:10.37,2013-10-14 01:41:00,
2013-10-13 20:44:00,39.0,30.8,29.20,NW,315,0.0,0.0,72,0.00,CLR,,0.00,WeatherDisplay:10.37,2013-10-14 01:44:00,
2013-10-13 20:45:00,38.8,30.9,29.20,NW,315,0.0,0.0,73,0.00,CLR,,0.00,WeatherDisplay:10.37,2013-10-14 01:45:00,
2013-10-13 20:46:00,38.8,30.9,29.20,NW,315,0.0,0.0,73,0.00,CLR,,0.00,WeatherDisplay:10.37,2013-10-14 01:46:00,
2013-10-13 20:49:00,38.7,30.4,29.20,NW,315,0.0,0.0,72,0.00,CLR,,0.00,WeatherDisplay:10.37,2013-10-14 01:49:00,
2013-10-13 20:50:00,38.7,30.7,29.20,NW,315,0.0,0.0,73,0.00,CLR,,0.00,WeatherDisplay:10.37,2013-10-14 01:50:00,
2013-10-13 20:51:00,38.7,30.4,29.20,NW,315,0.0,0.0,72,0.00,CLR,,0.00,WeatherDisplay:10.37,2013-10-14 01:51:00,
2013-10-13 20:54:00,38.5,30.6,29.20,NW,315,0.0,0.0,73,0.00,CLR,,0.00,WeatherDisplay:10.37,2013-10-14 01:54:00,
2013-10-13 20:55:00,38.5,30.6,29.20,NW,315,0.0,0.0,73,0.00,CLR,,0.00,WeatherDisplay:10.37,2013-10-14 01:55:00,
2013-10-13 20:56:00,38.5,30.6,29.20,NW,315,0.0,0.0,73,0.00,CLR,,0.00,WeatherDisplay:10.37,2013-10-14 01:56:00,
2013-10-13 20:59:00,38.1,30.2,29.20,NW,315,0.0,0.0,73,0.00,CLR,,0.00,WeatherDisplay:10.37,2013-10-14 01:59:00,
2013-10-13 21:00:00,37.9,30.1,29.20,NW,315,0.0,0.0,73,0.00,CLR,,0.00,WeatherDisplay:10.37,2013-10-14 02:00:00,
2013-10-13 21:01:00,37.9,29.7,29.20,NW,315,1.2,1.2,72,0.00,CLR,,0.00,WeatherDisplay:10.37,2013-10-14 02:01:00,
2013-10-13 21:04:00,37.9,30.1,29.20,NW,315,0.0,0.0,73,0.00,CLR,,0.00,WeatherDisplay:10.37,2013-10-14 02:04:00,
2013-10-13 21:05:00,37.9,30.1,29.20,NW,315,0.0,0.0,73,0.00,CLR,,0.00,WeatherDisplay:10.37,2013-10-14 02:05:00,
2013-10-13 21:06:00,37.9,30.1,29.20,NW,315,0.0,0.0,73,0.00,CLR,,0.00,WeatherDisplay:10.37,2013-10-14 02:06:00,
2013-10-13 21:07:00,37.8,30.2,29.20,NW,315,0.0,0.0,74,0.00,CLR,,0.00,WeatherDisplay:10.37,2013-10-14 02:07:00,
2013-10-13 21:09:00,37.8,30.2,29.20,NW,315,0.0,0.0,74,0.00,CLR,,0.00,WeatherDisplay:10.37,2013-10-14 02:09:00,
2013-10-13 21:10:00,37.8,30.2,29.20,NW,315,1.2,0.0,74,0.00,CLR,,0.00,WeatherDisplay:10.37,2013-10-14 02:10:00,
2013-10-13 21:11:00,37.8,30.2,29.20,NW,315,0.0,0.0,74,0.00,CLR,,0.00,WeatherDisplay:10.37,2013-10-14 02:11:00,
2013-10-13 21:12:00,37.8,30.2,29.20,NW,315,0.0,0.0,74,0.00,CLR,,0.00,WeatherDisplay:10.37,2013-10-14 02:12:00,
2013-10-13 21:13:00,37.8,30.2,29.20,NW,315,0.0,0.0,74,0.00,CLR,,0.00,WeatherDisplay:10.37,2013-10-14 02:13:00,
2013-10-13 21:14:00,37.8,30.2,29.20,NW,315,0.0,0.0,74,0.00,CLR,,0.00,WeatherDisplay:10.37,2013-10-14 02:14:00,
2013-10-13 21:15:00,37.4,29.9,29.20,NW,315,0.0,0.0,74,0.00,CLR,,0.00,WeatherDisplay:10.37,2013-10-14 02:15:00,
2013-10-13 21:16:00,37.4,29.9,29.20,NW,315,0.0,0.0,74,0.00,CLR,,0.00,WeatherDisplay:10.37,2013-10-14 02:16:00,
2013-10-13 21:17:00,37.4,29.9,29.20,NW,315,0.0,0.0,74,0.00,CLR,,0.00,WeatherDisplay:10.37,2013-10-14 02:17:00,
2013-10-13 21:18:00,37.4,29.9,29.20,NW,315,1.2,0.0,74,0.00,CLR,,0.00,WeatherDisplay:10.37,2013-10-14 02:18:00,
2013-10-13 21:19:00,37.4,29.9,29.20,NW,315,1.6,0.0,74,0.00,CLR,,0.00,WeatherDisplay:10.37,2013-10-14 02:19:00,
2013-10-13 21:20:00,37.4,29.9,29.20,NW,315,1.4,1.4,74,0.00,CLR,,0.00,WeatherDisplay:10.37,2013-10-14 02:20:00,
2013-10-13 21:21:00,37.4,29.9,29.20,NW,315,1.2,1.2,74,0.00,CLR,,0.00,WeatherDisplay:10.37,2013-10-14 02:21:00,
2013-10-13 21:22:00,37.2,29.7,29.20,NW,315,1.2,0.0,74,0.00,CLR,,0.00,WeatherDisplay:10.37,2013-10-14 02:22:00,
2013-10-13 21:23:00,37.2,29.7,29.20,NW,315,0.0,0.0,74,0.00,CLR,,0.00,WeatherDisplay:10.37,2013-10-14 02:23:00,
2013-10-13 21:24:00,37.2,29.7,29.20,NW,315,0.0,0.0,74,0.00,CLR,,0.00,WeatherDisplay:10.37,2013-10-14 02:24:00,
2013-10-13 21:25:00,37.2,29.7,29.20,NW,315,0.0,0.0,74,0.00,CLR,,0.00,WeatherDisplay:10.37,2013-10-14 02:25:00,
2013-10-13 21:26:00,37.2,29.7,29.20,NW,315,0.0,0.0,74,0.00,CLR,,0.00,WeatherDisplay:10.37,2013-10-14 02:26:00,
2013-10-13 21:28:00,37.2,30.0,29.20,NW,315,0.0,0.0,75,0.00,CLR,,0.00,WeatherDisplay:10.37,2013-10-14 02:28:00,
2013-10-13 21:29:00,37.0,30.2,29.20,NW,315,0.0,0.0,76,0.00,CLR,,0.00,WeatherDisplay:10.37,2013-10-14 02:29:00,
2013-10-13 21:30:00,37.0,30.2,29.20,NW,315,0.0,0.0,76,0.00,CLR,,0.00,WeatherDisplay:10.37,2013-10-14 02:30:00,
2013-10-13 21:31:00,37.0,30.2,29.20,NW,315,1.2,1.2,76,0.00,CLR,,0.00,WeatherDisplay:10.37,2013-10-14 02:31:00,
2013-10-13 21:33:00,37.0,30.2,29.20,NW,315,0.0,0.0,76,0.00,CLR,,0.00,WeatherDisplay:10.37,2013-10-14 02:33:00,
2013-10-13 21:34:00,37.0,30.2,29.20,NW,315,0.0,0.0,76,0.00,CLR,,0.00,WeatherDisplay:10.37,2013-10-14 02:34:00,
2013-10-13 21:35:00,37.0,30.2,29.20,NW,315,0.0,0.0,76,0.00,CLR,,0.00,WeatherDisplay:10.37,2013-10-14 02:35:00,
2013-10-13 21:36:00,37.0,30.2,29.20,NW,315,0.0,0.0,76,0.00,CLR,,0.00,WeatherDisplay:10.37,2013-10-14 02:36:00,
2013-10-13 21:38:00,36.9,30.0,29.20,NW,315,0.0,0.0,76,0.00,CLR,,0.00,WeatherDisplay:10.37,2013-10-14 02:38:00,
2013-10-13 21:39:00,36.9,30.3,29.20,NW,315,0.0,0.0,77,0.00,CLR,,0.00,WeatherDisplay:10.37,2013-10-14 02:39:00,
2013-10-13 21:40:00,36.9,30.3,29.20,NW,315,0.0,0.0,77,0.00,CLR,,0.00,WeatherDisplay:10.37,2013-10-14 02:40:00,
2013-10-13 21:41:00,36.9,30.3,29.20,NW,315,0.0,0.0,77,0.00,CLR,,0.00,WeatherDisplay:10.37,2013-10-14 02:41:00,
2013-10-13 21:44:00,36.7,30.5,29.20,NW,315,0.0,0.0,78,0.00,CLR,,0.00,WeatherDisplay:10.37,2013-10-14 02:44:00,
2013-10-13 21:45:00,36.5,30.3,29.20,NW,315,0.0,0.0,78,0.00,CLR,,0.00,WeatherDisplay:10.37,2013-10-14 02:45:00,
2013-10-13 21:46:00,36.5,30.0,29.20,NW,315,0.0,0.0,77,0.00,CLR,,0.00,WeatherDisplay:10.37,2013-10-14 02:46:00,
2013-10-13 21:47:00,36.5,30.0,29.20,NW,315,0.0,0.0,77,0.00,CLR,,0.00,WeatherDisplay:10.37,2013-10-14 02:47:00,
2013-10-13 21:49:00,36.5,30.0,29.20,NW,315,0.0,0.0,77,0.00,CLR,,0.00,WeatherDisplay:10.37,2013-10-14 02:49:00,
2013-10-13 21:50:00,36.5,30.0,29.20,NW,315,0.0,0.0,77,0.00,CLR,,0.00,WeatherDisplay:10.37,2013-10-14 02:50:00,
2013-10-13 21:51:00,36.5,30.3,29.20,NW,315,0.0,0.0,78,0.00,CLR,,0.00,WeatherDisplay:10.37,2013-10-14 02:51:00,
2013-10-13 21:52:00,36.5,30.3,29.20,NW,315,0.0,0.0,78,0.00,CLR,,0.00,WeatherDisplay:10.37,2013-10-14 02:52:00,
2013-10-13 21:54:00,36.3,29.8,29.20,NW,315,0.0,0.0,77,0.00,CLR,,0.00,WeatherDisplay:10.37,2013-10-14 02:54:00,
2013-10-13 21:55:00,36.3,29.8,29.20,NW,315,0.0,0.0,77,0.00,CLR,,0.00,WeatherDisplay:10.37,2013-10-14 02:55:00,
2013-10-13 21:56:00,36.3,29.8,29.20,NW,315,0.0,0.0,77,0.00,CLR,,0.00,WeatherDisplay:10.37,2013-10-14 02:56:00,
2013-10-13 21:57:00,36.3,29.8,29.20,NW,315,0.0,0.0,77,0.00,CLR,,0.00,WeatherDisplay:10.37,2013-10-14 02:57:00,
2013-10-13 22:00:00,36.3,30.1,29.20,NW,315,0.0,0.0,78,0.00,CLR,,0.00,WeatherDisplay:10.37,2013-10-14 03:00:00,
2013-10-13 22:02:00,36.3,30.1,29.20,NW,315,0.0,0.0,78,0.00,CLR,,0.00,WeatherDisplay:10.37,2013-10-14 03:02:00,
2013-10-13 22:03:00,36.1,29.9,29.20,NW,315,0.0,0.0,78,0.00,CLR,,0.00,WeatherDisplay:10.37,2013-10-14 03:03:00,
2013-10-13 22:05:00,36.1,29.9,29.20,NW,315,0.0,0.0,78,0.00,CLR,,0.00,WeatherDisplay:10.37,2013-10-14 03:05:00,
2013-10-13 22:07:00,36.0,29.8,29.20,NW,315,0.0,0.0,78,0.00,CLR,,0.00,WeatherDisplay:10.37,2013-10-14 03:07:00,
2013-10-13 22:08:00,36.0,29.8,29.20,NW,315,0.0,0.0,78,0.00,CLR,,0.00,WeatherDisplay:10.37,2013-10-14 03:08:00,
2013-10-13 22:10:00,35.8,29.6,29.20,NW,315,0.0,0.0,78,0.00,CLR,,0.00,WeatherDisplay:10.37,2013-10-14 03:10:00,
2013-10-13 22:11:00,35.8,29.6,29.20,NW,315,0.0,0.0,78,0.00,CLR,,0.00,WeatherDisplay:10.37,2013-10-14 03:11:00,
2013-10-13 22:12:00,35.8,29.6,29.20,NW,315,0.0,0.0,78,0.00,CLR,,0.00,WeatherDisplay:10.37,2013-10-14 03:12:00,
2013-10-13 22:13:00,35.8,29.6,29.20,NW,315,0.0,0.0,78,0.00,CLR,,0.00,WeatherDisplay:10.37,2013-10-14 03:13:00,
2013-10-13 22:15:00,35.8,29.6,29.20,NW,315,0.0,0.0,78,0.00,CLR,,0.00,WeatherDisplay:10.37,2013-10-14 03:15:00,
2013-10-13 22:16:00,35.8,29.6,29.20,NW,315,0.0,0.0,78,0.00,CLR,,0.00,WeatherDisplay:10.37,2013-10-14 03:16:00,
2013-10-13 22:17:00,36.0,30.1,29.20,NW,315,0.0,0.0,79,0.00,CLR,,0.00,WeatherDisplay:10.37,2013-10-14 03:17:00,
2013-10-13 22:18:00,35.8,29.9,29.20,NW,315,0.0,0.0,79,0.00,CLR,,0.00,WeatherDisplay:10.37,2013-10-14 03:18:00,
2013-10-13 22:19:00,35.8,29.9,29.20,NW,315,0.0,0.0,79,0.00,CLR,,0.00,WeatherDisplay:10.37,2013-10-14 03:19:00,
2013-10-13 22:20:00,35.8,29.9,29.20,NW,315,0.0,0.0,79,0.00,CLR,,0.00,WeatherDisplay:10.37,2013-10-14 03:20:00,
2013-10-13 22:21:00,35.8,29.9,29.20,NW,315,0.0,0.0,79,0.00,CLR,,0.00,WeatherDisplay:10.37,2013-10-14 03:21:00,
2013-10-13 22:22:00,35.8,29.6,29.20,NW,315,1.4,0.0,78,0.00,CLR,,0.00,WeatherDisplay:10.37,2013-10-14 03:22:00,
2013-10-13 22:23:00,35.8,29.6,29.20,NW,315,2.3,2.3,78,0.00,CLR,,0.00,WeatherDisplay:10.37,2013-10-14 03:23:00,
2013-10-13 22:25:00,35.8,29.6,29.20,NW,315,2.3,2.3,78,0.00,CLR,,0.00,WeatherDisplay:10.37,2013-10-14 03:25:00,
2013-10-13 22:26:00,35.8,29.6,29.20,NW,315,1.6,1.6,78,0.00,CLR,,0.00,WeatherDisplay:10.37,2013-10-14 03:26:00,
2013-10-13 22:28:00,35.6,29.7,29.20,NW,315,2.3,2.3,79,0.00,CLR,,0.00,WeatherDisplay:10.37,2013-10-14 03:28:00,
2013-10-13 22:30:00,35.6,29.7,29.20,NW,315,1.2,1.2,79,0.00,CLR,,0.00,WeatherDisplay:10.37,2013-10-14 03:30:00,
2013-10-13 22:31:00,35.6,29.7,29.20,NW,315,1.2,0.0,79,0.00,CLR,,0.00,WeatherDisplay:10.37,2013-10-14 03:31:00,
2013-10-13 22:33:00,35.6,29.7,29.20,NW,315,0.0,0.0,79,0.00,CLR,,0.00,WeatherDisplay:10.37,2013-10-14 03:33:00,
2013-10-13 22:34:00,35.6,29.7,29.20,NW,315,0.0,0.0,79,0.00,CLR,,0.00,WeatherDisplay:10.37,2013-10-14 03:34:00,
2013-10-13 22:35:00,35.6,29.7,29.20,NW,315,0.0,0.0,79,0.00,CLR,,0.00,WeatherDisplay:10.37,2013-10-14 03:35:00,
2013-10-13 22:36:00,35.6,29.7,29.20,NW,315,0.0,0.0,79,0.00,CLR,,0.00,WeatherDisplay:10.37,2013-10-14 03:36:00,
2013-10-13 22:38:00,35.4,29.6,29.20,NW,315,0.0,0.0,79,0.00,CLR,,0.00,WeatherDisplay:10.37,2013-10-14 03:38:00,
2013-10-13 22:39:00,35.4,29.6,29.20,NW,315,0.0,0.0,79,0.00,CLR,,0.00,WeatherDisplay:10.37,2013-10-14 03:39:00,
2013-10-13 22:41:00,35.4,29.6,29.18,NW,315,0.0,0.0,79,0.00,CLR,,0.00,WeatherDisplay:10.37,2013-10-14 03:41:00,
2013-10-13 22:43:00,35.4,29.6,29.18,NW,315,0.0,0.0,79,0.00,CLR,,0.00,WeatherDisplay:10.37,2013-10-14 03:43:00,
2013-10-13 22:44:00,35.4,29.6,29.18,NW,315,0.0,0.0,79,0.00,CLR,,0.00,WeatherDisplay:10.37,2013-10-14 03:44:00,
2013-10-13 22:46:00,35.4,29.9,29.18,NW,315,0.0,0.0,80,0.00,CLR,,0.00,WeatherDisplay:10.37,2013-10-14 03:46:00,
2013-10-13 22:47:00,35.4,29.9,29.18,NW,315,0.0,0.0,80,0.00,CLR,,0.00,WeatherDisplay:10.37,2013-10-14 03:47:00,
2013-10-13 22:48:00,35.4,29.9,29.18,NW,315,0.0,0.0,80,0.00,CLR,,0.00,WeatherDisplay:10.37,2013-10-14 03:48:00,
2013-10-13 22:49:00,35.4,29.9,29.18,NW,315,0.0,0.0,80,0.00,CLR,,0.00,WeatherDisplay:10.37,2013-10-14 03:49:00,
2013-10-13 22:52:00,35.4,29.9,29.18,NW,315,0.0,0.0,80,0.00,CLR,,0.00,WeatherDisplay:10.37,2013-10-14 03:52:00,
2013-10-13 22:53:00,35.4,29.9,29.18,West,270,0.0,0.0,80,0.00,CLR,,0.00,WeatherDisplay:10.37,2013-10-14 03:53:00,
2013-10-13 22:54:00,35.4,29.9,29.18,West,270,0.0,0.0,80,0.00,CLR,,0.00,WeatherDisplay:10.37,2013-10-14 03:54:00,
2013-10-13 22:57:00,35.4,29.9,29.18,West,270,0.0,0.0,80,0.00,CLR,,0.00,WeatherDisplay:10.37,2013-10-14 03:57:00,
2013-10-13 22:59:00,35.4,30.2,29.18,West,270,0.0,0.0,81,0.00,CLR,,0.00,WeatherDisplay:10.37,2013-10-14 03:59:00,
2013-10-13 23:01:00,35.4,30.2,29.18,West,270,0.0,0.0,81,0.00,CLR,,0.00,WeatherDisplay:10.37,2013-10-14 04:01:00,
2013-10-13 23:02:00,35.4,30.2,29.18,West,270,0.0,0.0,81,0.00,CLR,,0.00,WeatherDisplay:10.37,2013-10-14 04:02:00,
2013-10-13 23:06:00,35.2,30.3,29.18,West,270,0.0,0.0,82,0.00,CLR,,0.00,WeatherDisplay:10.37,2013-10-14 04:06:00,
2013-10-13 23:07:00,35.2,30.3,29.18,West,270,0.0,0.0,82,0.00,CLR,,0.00,WeatherDisplay:10.37,2013-10-14 04:07:00,
2013-10-13 23:11:00,35.1,30.1,29.20,West,270,0.0,0.0,82,0.00,CLR,,0.00,WeatherDisplay:10.37,2013-10-14 04:11:00,
2013-10-13 23:12:00,35.1,30.1,29.20,West,270,0.0,0.0,82,0.00,CLR,,0.00,WeatherDisplay:10.37,2013-10-14 04:12:00,
2013-10-13 23:16:00,35.2,30.3,29.20,SW,225,0.0,0.0,82,0.00,CLR,,0.00,WeatherDisplay:10.37,2013-10-14 04:16:00,
2013-10-13 23:17:00,35.1,30.1,29.20,SW,225,0.0,0.0,82,0.00,CLR,,0.00,WeatherDisplay:10.37,2013-10-14 04:17:00,
2013-10-13 23:19:00,35.1,30.1,29.20,SW,225,0.0,0.0,82,0.00,CLR,,0.00,WeatherDisplay:10.37,2013-10-14 04:19:00,
2013-10-13 23:21:00,34.9,30.2,29.20,SW,225,0.0,0.0,83,0.00,CLR,,0.00,WeatherDisplay:10.37,2013-10-14 04:21:00,
2013-10-13 23:22:00,34.9,30.2,29.20,SW,225,0.0,0.0,83,0.00,CLR,,0.00,WeatherDisplay:10.37,2013-10-14 04:22:00,
2013-10-13 23:24:00,34.9,30.2,29.20,SW,225,0.0,0.0,83,0.00,CLR,,0.00,WeatherDisplay:10.37,2013-10-14 04:24:00,
2013-10-13 23:26:00,34.7,30.1,29.20,SW,225,0.0,0.0,83,0.00,CLR,,0.00,WeatherDisplay:10.37,2013-10-14 04:26:00,
2013-10-13 23:27:00,34.7,30.1,29.20,WSW,248,0.0,0.0,83,0.00,CLR,,0.00,WeatherDisplay:10.37,2013-10-14 04:27:00,
2013-10-13 23:29:00,34.7,29.8,29.20,WSW,248,0.0,0.0,82,0.00,CLR,,0.00,WeatherDisplay:10.37,2013-10-14 04:29:00,
2013-10-13 23:32:00,34.7,30.1,29.20,WSW,248,0.0,0.0,83,0.00,CLR,,0.00,WeatherDisplay:10.37,2013-10-14 04:32:00,
2013-10-13 23:33:00,34.7,30.1,29.20,WSW,248,0.0,0.0,83,0.00,CLR,,0.00,WeatherDisplay:10.37,2013-10-14 04:33:00,
2013-10-13 23:34:00,34.5,29.9,29.20,WSW,248,0.0,0.0,83,0.00,CLR,,0.00,WeatherDisplay:10.37,2013-10-14 04:34:00,
2013-10-13 23:37:00,34.5,29.9,29.20,WSW,248,0.0,0.0,83,0.00,CLR,,0.00,WeatherDisplay:10.37,2013-10-14 04:37:00,
2013-10-13 23:38:00,34.5,29.9,29.20,WSW,248,0.0,0.0,83,0.00,CLR,,0.00,WeatherDisplay:10.37,2013-10-14 04:38:00,
2013-10-13 23:39:00,34.5,30.2,29.20,WSW,248,0.0,0.0,84,0.00,CLR,,0.00,WeatherDisplay:10.37,2013-10-14 04:39:00,
2013-10-13 23:40:00,34.5,30.2,29.20,WSW,248,0.0,0.0,84,0.00,CLR,,0.00,WeatherDisplay:10.37,2013-10-14 04:40:00,
2013-10-13 23:42:00,34.3,30.0,29.20,WSW,248,0.0,0.0,84,0.00,CLR,,0.00,WeatherDisplay:10.37,2013-10-14 04:42:00,
2013-10-13 23:43:00,34.3,30.0,29.20,WSW,248,0.0,0.0,84,0.00,CLR,,0.00,WeatherDisplay:10.37,2013-10-14 04:43:00,
2013-10-13 23:44:00,34.2,29.8,29.20,WSW,248,0.0,0.0,84,0.00,CLR,,0.00,WeatherDisplay:10.37,2013-10-14 04:44:00,
2013-10-13 23:45:00,34.2,29.8,29.20,WSW,248,0.0,0.0,84,0.00,CLR,,0.00,WeatherDisplay:10.37,2013-10-14 04:45:00,
2013-10-13 23:48:00,34.2,29.5,29.20,WSW,248,0.0,0.0,83,0.00,CLR,,0.00,WeatherDisplay:10.37,2013-10-14 04:48:00,
2013-10-13 23:49:00,34.2,29.5,29.20,WSW,248,0.0,0.0,83,0.00,CLR,,0.00,WeatherDisplay:10.37,2013-10-14 04:49:00,
2013-10-13 23:51:00,34.2,29.5,29.20,WSW,248,0.0,0.0,83,0.00,CLR,,0.00,WeatherDisplay:10.37,2013-10-14 04:51:00,
2013-10-13 23:53:00,34.2,29.8,29.20,West,270,0.0,0.0,84,0.00,CLR,,0.00,WeatherDisplay:10.37,2013-10-14 04:53:00,
2013-10-13 23:55:00,34.2,29.8,29.20,WSW,256,0.0,0.0,84,0.00,CLR,,0.00,WeatherDisplay:10.37,2013-10-14 04:55:00,
2013-10-13 23:56:00,34.0,29.7,29.20,West,270,0.0,0.0,84,0.00,CLR,,0.00,WeatherDisplay:10.37,2013-10-14 04:56:00,
2013-10-13 23:58:00,34.0,29.7,29.20,West,270,0.0,0.0,84,0.00,CLR,,0.00,WeatherDisplay:10.37,2013-10-14 04:58:00,